IRM050 VTBS-OIIE
Flight info
| Callsign | IRM050 |
|---|---|
| Flight time | 7h 11m |
| Altitude | 38000 |
| Route | TARED1E TARED P646 BETNO N895 BBS T1 BPL A791 PRA A325 TASOP/N0470F400 A325 KE B210 NH P757 PG L124 SODOK T216 DAR L125 RADAL |
| Aircraft | A343/H-SDE2E3FGHIJ4J5M1RWXY/LB1D1 |
Departure
| Time | 2026-04-30 05:36 |
|---|---|
| Airport | Suvarnabhumi Airport (VTBS) |
Arrival
| Time | 2026-04-30 12:47 |
|---|---|
| Airport | Imam Khomeini International Airport (OIIE) |
| Time | Latitude | Longitude | Altitude | Speed | Heading |
|---|---|---|---|---|---|
| 2026-04-30 05:11 | 13.68050 | 100.75167 | 17 ft | 0 kts | 14° |
| 2026-04-30 05:21 | 13.68044 | 100.75165 | 17 ft | 2 kts | 14° |
| 2026-04-30 05:21 | 13.68025 | 100.75160 | 20 ft | 3 kts | 14° |
| 2026-04-30 05:21 | 13.68005 | 100.75155 | 20 ft | 3 kts | 14° |
| 2026-04-30 05:22 | 13.67986 | 100.75150 | 19 ft | 2 kts | 14° |
| 2026-04-30 05:22 | 13.67971 | 100.75147 | 18 ft | 3 kts | 353° |
| 2026-04-30 05:22 | 13.67956 | 100.75153 | 21 ft | 3 kts | 305° |
| 2026-04-30 05:22 | 13.67947 | 100.75171 | 20 ft | 2 kts | 287° |
| 2026-04-30 05:23 | 13.67945 | 100.75177 | 20 ft | 0 kts | 284° |
| 2026-04-30 05:25 | 13.67946 | 100.75172 | 17 ft | 1 kts | 284° |
| 2026-04-30 05:25 | 13.67949 | 100.75164 | 17 ft | 2 kts | 284° |
| 2026-04-30 05:26 | 13.67953 | 100.75147 | 17 ft | 3 kts | 284° |
| 2026-04-30 05:26 | 13.67959 | 100.75121 | 17 ft | 4 kts | 284° |
| 2026-04-30 05:26 | 13.67968 | 100.75085 | 17 ft | 6 kts | 284° |
| 2026-04-30 05:26 | 13.67979 | 100.75039 | 17 ft | 7 kts | 284° |
| 2026-04-30 05:27 | 13.67991 | 100.74983 | 17 ft | 9 kts | 282° |
| 2026-04-30 05:27 | 13.68005 | 100.74915 | 17 ft | 10 kts | 286° |
| 2026-04-30 05:27 | 13.68028 | 100.74847 | 17 ft | 10 kts | 283° |
| 2026-04-30 05:27 | 13.68046 | 100.74772 | 17 ft | 11 kts | 284° |
| 2026-04-30 05:28 | 13.68065 | 100.74694 | 17 ft | 11 kts | 284° |
| 2026-04-30 05:28 | 13.68085 | 100.74616 | 17 ft | 11 kts | 284° |
| 2026-04-30 05:28 | 13.68105 | 100.74537 | 17 ft | 11 kts | 285° |
| 2026-04-30 05:28 | 13.68126 | 100.74459 | 17 ft | 12 kts | 286° |
| 2026-04-30 05:29 | 13.68149 | 100.74376 | 17 ft | 12 kts | 286° |
| 2026-04-30 05:29 | 13.68171 | 100.74288 | 17 ft | 13 kts | 282° |
| 2026-04-30 05:29 | 13.68192 | 100.74194 | 17 ft | 14 kts | 283° |
| 2026-04-30 05:29 | 13.68219 | 100.74096 | 17 ft | 14 kts | 298° |
| 2026-04-30 05:30 | 13.68314 | 100.74072 | 17 ft | 17 kts | 13° |
| 2026-04-30 05:30 | 13.68444 | 100.74106 | 17 ft | 21 kts | 14° |
| 2026-04-30 05:30 | 13.68592 | 100.74145 | 17 ft | 22 kts | 14° |
| 2026-04-30 05:30 | 13.68739 | 100.74183 | 17 ft | 22 kts | 14° |
| 2026-04-30 05:31 | 13.68884 | 100.74219 | 17 ft | 21 kts | 13° |
| 2026-04-30 05:31 | 13.69025 | 100.74257 | 17 ft | 21 kts | 15° |
| 2026-04-30 05:31 | 13.69168 | 100.74296 | 17 ft | 22 kts | 14° |
| 2026-04-30 05:31 | 13.69314 | 100.74334 | 17 ft | 21 kts | 14° |
| 2026-04-30 05:32 | 13.69458 | 100.74373 | 17 ft | 22 kts | 14° |
| 2026-04-30 05:32 | 13.69607 | 100.74412 | 17 ft | 22 kts | 14° |
| 2026-04-30 05:32 | 13.69755 | 100.74450 | 18 ft | 22 kts | 14° |
| 2026-04-30 05:32 | 13.69860 | 100.74463 | 17 ft | 0 kts | 342° |
| 2026-04-30 05:33 | 13.69868 | 100.74460 | 17 ft | 3 kts | 341° |
| 2026-04-30 05:33 | 13.69882 | 100.74444 | 17 ft | 3 kts | 286° |
| 2026-04-30 05:33 | 13.69894 | 100.74396 | 17 ft | 10 kts | 282° |
| 2026-04-30 05:33 | 13.69914 | 100.74302 | 17 ft | 15 kts | 282° |
| 2026-04-30 05:34 | 13.69927 | 100.74212 | 17 ft | 4 kts | 249° |
| 2026-04-30 05:34 | 13.69903 | 100.74196 | 17 ft | 5 kts | 206° |
| 2026-04-30 05:34 | 13.69882 | 100.74191 | 17 ft | 0 kts | 193° |
| 2026-04-30 05:34 | 13.69880 | 100.74190 | 17 ft | 1 kts | 193° |
| 2026-04-30 05:35 | 13.69836 | 100.74179 | 16 ft | 15 kts | 194° |
| 2026-04-30 05:35 | 13.69569 | 100.74108 | 14 ft | 66 kts | 194° |
| 2026-04-30 05:35 | 13.68965 | 100.73950 | 18 ft | 111 kts | 194° |
| 2026-04-30 05:35 | 13.68084 | 100.73719 | 17 ft | 148 kts | 194° |
| 2026-04-30 05:36 | 13.67021 | 100.73443 | 314 ft | 158 kts | 193° |
| 2026-04-30 05:36 | 13.65950 | 100.73180 | 733 ft | 162 kts | 192° |
| 2026-04-30 05:36 | 13.64813 | 100.72909 | 1041 ft | 172 kts | 192° |
| 2026-04-30 05:36 | 13.63650 | 100.72599 | 1528 ft | 173 kts | 194° |
| 2026-04-30 05:37 | 13.62483 | 100.72272 | 2062 ft | 175 kts | 192° |
| 2026-04-30 05:37 | 13.61305 | 100.71950 | 2637 ft | 175 kts | 192° |
| 2026-04-30 05:37 | 13.60122 | 100.71631 | 3142 ft | 179 kts | 191° |
| 2026-04-30 05:37 | 13.58856 | 100.71296 | 3424 ft | 196 kts | 191° |
| 2026-04-30 05:38 | 13.57469 | 100.70935 | 3703 ft | 215 kts | 192° |
| 2026-04-30 05:38 | 13.55956 | 100.70534 | 3981 ft | 237 kts | 193° |
| 2026-04-30 05:38 | 13.54372 | 100.69826 | 4226 ft | 262 kts | 216° |
| 2026-04-30 05:38 | 13.53289 | 100.68331 | 4814 ft | 273 kts | 251° |
| 2026-04-30 05:39 | 13.53160 | 100.66377 | 5503 ft | 281 kts | 279° |
| 2026-04-30 05:39 | 13.53612 | 100.64425 | 6435 ft | 281 kts | 285° |
| 2026-04-30 05:39 | 13.54138 | 100.62464 | 7156 ft | 288 kts | 284° |
| 2026-04-30 05:39 | 13.54718 | 100.60468 | 7816 ft | 295 kts | 290° |
| 2026-04-30 05:40 | 13.55801 | 100.58674 | 8485 ft | 299 kts | 315° |
| 2026-04-30 05:40 | 13.57538 | 100.57516 | 9175 ft | 301 kts | 342° |
| 2026-04-30 05:40 | 13.59604 | 100.57207 | 9888 ft | 301 kts | 0° |
| 2026-04-30 05:40 | 13.61720 | 100.57252 | 10383 ft | 311 kts | 2° |
| 2026-04-30 05:41 | 13.63942 | 100.57339 | 10669 ft | 328 kts | 2° |
| 2026-04-30 05:41 | 13.66267 | 100.57425 | 10964 ft | 341 kts | 4° |
| 2026-04-30 05:41 | 13.68697 | 100.57520 | 11194 ft | 358 kts | 2° |
| 2026-04-30 05:41 | 13.71234 | 100.57590 | 11443 ft | 371 kts | 2° |
| 2026-04-30 05:42 | 13.73841 | 100.57656 | 11892 ft | 377 kts | 1° |
| 2026-04-30 05:42 | 13.76483 | 100.57618 | 12334 ft | 383 kts | 353° |
| 2026-04-30 05:42 | 13.79067 | 100.56916 | 12784 ft | 388 kts | 334° |
| 2026-04-30 05:42 | 13.81425 | 100.55578 | 13382 ft | 388 kts | 327° |
| 2026-04-30 05:43 | 13.83733 | 100.54118 | 13920 ft | 390 kts | 327° |
| 2026-04-30 05:43 | 13.86043 | 100.52647 | 14431 ft | 392 kts | 327° |
| 2026-04-30 05:43 | 13.88379 | 100.51166 | 14887 ft | 395 kts | 327° |
| 2026-04-30 05:43 | 13.90694 | 100.49637 | 15420 ft | 396 kts | 322° |
| 2026-04-30 05:44 | 13.92690 | 100.47753 | 15903 ft | 395 kts | 308° |
| 2026-04-30 05:44 | 13.94146 | 100.45365 | 16404 ft | 395 kts | 292° |
| 2026-04-30 05:44 | 13.94926 | 100.42663 | 16930 ft | 394 kts | 279° |
| 2026-04-30 05:44 | 13.95354 | 100.39864 | 17443 ft | 397 kts | 277° |
| 2026-04-30 05:45 | 13.95734 | 100.37038 | 17965 ft | 399 kts | 277° |
| 2026-04-30 05:45 | 13.96118 | 100.34196 | 18415 ft | 402 kts | 277° |
| 2026-04-30 05:45 | 13.96512 | 100.31333 | 18839 ft | 405 kts | 277° |
| 2026-04-30 05:45 | 13.96914 | 100.28446 | 19224 ft | 409 kts | 277° |
| 2026-04-30 05:46 | 13.97464 | 100.25567 | 19676 ft | 411 kts | 285° |
| 2026-04-30 05:46 | 13.98503 | 100.22815 | 20102 ft | 415 kts | 297° |
| 2026-04-30 05:46 | 13.99997 | 100.20266 | 20549 ft | 417 kts | 302° |
| 2026-04-30 05:46 | 14.01600 | 100.17798 | 20958 ft | 420 kts | 302° |
| 2026-04-30 05:47 | 14.03237 | 100.15302 | 21402 ft | 422 kts | 302° |
| 2026-04-30 05:47 | 14.04882 | 100.12784 | 21745 ft | 426 kts | 303° |
| 2026-04-30 05:47 | 14.06540 | 100.10240 | 22152 ft | 428 kts | 303° |
| 2026-04-30 05:47 | 14.08197 | 100.07690 | 22625 ft | 429 kts | 303° |
| 2026-04-30 05:48 | 14.09866 | 100.05119 | 22891 ft | 434 kts | 302° |
| 2026-04-30 05:48 | 14.11545 | 100.02530 | 23275 ft | 437 kts | 303° |
| 2026-04-30 05:48 | 14.13240 | 99.99915 | 23573 ft | 441 kts | 303° |
| 2026-04-30 05:48 | 14.14947 | 99.97281 | 23935 ft | 441 kts | 303° |
| 2026-04-30 05:49 | 14.16643 | 99.94663 | 24423 ft | 439 kts | 303° |
| 2026-04-30 05:49 | 14.18339 | 99.92042 | 24728 ft | 441 kts | 303° |
| 2026-04-30 05:49 | 14.20051 | 99.89402 | 25023 ft | 444 kts | 303° |
| 2026-04-30 05:49 | 14.21764 | 99.86753 | 25389 ft | 444 kts | 303° |
| 2026-04-30 05:50 | 14.23478 | 99.84099 | 25745 ft | 446 kts | 303° |
| 2026-04-30 05:50 | 14.25202 | 99.81430 | 26020 ft | 449 kts | 303° |
| 2026-04-30 05:50 | 14.26937 | 99.78744 | 26318 ft | 451 kts | 303° |
| 2026-04-30 05:50 | 14.28679 | 99.76046 | 26666 ft | 452 kts | 303° |
| 2026-04-30 05:51 | 14.30424 | 99.73344 | 27004 ft | 453 kts | 303° |
| 2026-04-30 05:51 | 14.32171 | 99.70638 | 27334 ft | 454 kts | 303° |
| 2026-04-30 05:51 | 14.33923 | 99.67922 | 27645 ft | 456 kts | 303° |
| 2026-04-30 05:51 | 14.35684 | 99.65192 | 27966 ft | 457 kts | 303° |
| 2026-04-30 05:52 | 14.37448 | 99.62456 | 28262 ft | 458 kts | 303° |
| 2026-04-30 05:52 | 14.39210 | 99.59723 | 28673 ft | 457 kts | 303° |
| 2026-04-30 05:52 | 14.40968 | 99.56995 | 29050 ft | 457 kts | 303° |
| 2026-04-30 05:52 | 14.42729 | 99.54262 | 29308 ft | 458 kts | 303° |
| 2026-04-30 05:53 | 14.44389 | 99.51449 | 29584 ft | 459 kts | 299° |
| 2026-04-30 05:53 | 14.45930 | 99.48552 | 29865 ft | 461 kts | 297° |
| 2026-04-30 05:53 | 14.47421 | 99.45623 | 30087 ft | 462 kts | 297° |
| 2026-04-30 05:53 | 14.48901 | 99.42661 | 30209 ft | 466 kts | 296° |
| 2026-04-30 05:54 | 14.50382 | 99.39677 | 30423 ft | 467 kts | 296° |
| 2026-04-30 05:54 | 14.51844 | 99.36742 | 30749 ft | 465 kts | 296° |
| 2026-04-30 05:54 | 14.53324 | 99.33782 | 31084 ft | 463 kts | 296° |
| 2026-04-30 05:54 | 14.54800 | 99.30840 | 31422 ft | 461 kts | 296° |
| 2026-04-30 05:55 | 14.56276 | 99.27905 | 31658 ft | 461 kts | 296° |
| 2026-04-30 05:55 | 14.57755 | 99.24965 | 31896 ft | 461 kts | 296° |
| 2026-04-30 05:55 | 14.59232 | 99.22030 | 32167 ft | 461 kts | 296° |
| 2026-04-30 05:55 | 14.60711 | 99.19095 | 32455 ft | 460 kts | 296° |
| 2026-04-30 05:56 | 14.62188 | 99.16165 | 32766 ft | 459 kts | 296° |
| 2026-04-30 05:56 | 14.63655 | 99.13249 | 33044 ft | 457 kts | 296° |
| 2026-04-30 05:56 | 14.65119 | 99.10337 | 33308 ft | 457 kts | 295° |
| 2026-04-30 05:56 | 14.66582 | 99.07428 | 33587 ft | 456 kts | 295° |
| 2026-04-30 05:57 | 14.68041 | 99.04523 | 33852 ft | 455 kts | 295° |
| 2026-04-30 05:57 | 14.69501 | 99.01615 | 33901 ft | 456 kts | 295° |
| 2026-04-30 05:57 | 14.72406 | 98.95826 | 33906 ft | 453 kts | 295° |
| 2026-04-30 05:58 | 14.75302 | 98.90052 | 33898 ft | 452 kts | 295° |
| 2026-04-30 05:58 | 14.78191 | 98.84287 | 33906 ft | 451 kts | 294° |
| 2026-04-30 05:59 | 14.81073 | 98.78532 | 33902 ft | 450 kts | 294° |
| 2026-04-30 05:59 | 14.83464 | 98.73754 | 33901 ft | 450 kts | 294° |
| 2026-04-30 06:00 | 14.86810 | 98.67064 | 33904 ft | 451 kts | 294° |
| 2026-04-30 06:00 | 14.89687 | 98.61304 | 33898 ft | 451 kts | 294° |
| 2026-04-30 06:01 | 14.92081 | 98.56508 | 33898 ft | 451 kts | 294° |
| 2026-04-30 06:01 | 14.94956 | 98.50744 | 33899 ft | 451 kts | 294° |
| 2026-04-30 06:02 | 14.97832 | 98.44974 | 33893 ft | 451 kts | 294° |
| 2026-04-30 06:02 | 15.00706 | 98.39207 | 33894 ft | 451 kts | 294° |
| 2026-04-30 06:03 | 15.03576 | 98.33441 | 33887 ft | 451 kts | 294° |
| 2026-04-30 06:03 | 15.06447 | 98.27668 | 33890 ft | 451 kts | 294° |
| 2026-04-30 06:04 | 15.09317 | 98.21892 | 33891 ft | 451 kts | 294° |
| 2026-04-30 06:05 | 15.13680 | 98.13260 | 33894 ft | 451 kts | 294° |
| 2026-04-30 06:05 | 15.16599 | 98.07548 | 33893 ft | 451 kts | 294° |
| 2026-04-30 06:06 | 15.19532 | 98.01791 | 33901 ft | 452 kts | 294° |
| 2026-04-30 06:06 | 15.22454 | 97.96039 | 33901 ft | 451 kts | 294° |
| 2026-04-30 06:07 | 15.25373 | 97.90287 | 33898 ft | 451 kts | 294° |
| 2026-04-30 06:07 | 15.28284 | 97.84546 | 33894 ft | 450 kts | 294° |
| 2026-04-30 06:08 | 15.31196 | 97.78802 | 33896 ft | 450 kts | 294° |
| 2026-04-30 06:08 | 15.34106 | 97.73052 | 33898 ft | 451 kts | 294° |
| 2026-04-30 06:09 | 15.37013 | 97.67306 | 33901 ft | 450 kts | 294° |
| 2026-04-30 06:09 | 15.39919 | 97.61557 | 33901 ft | 450 kts | 294° |
| 2026-04-30 06:10 | 15.42826 | 97.55801 | 33899 ft | 450 kts | 294° |
| 2026-04-30 06:10 | 15.45729 | 97.50049 | 33900 ft | 450 kts | 294° |
| 2026-04-30 06:11 | 15.48634 | 97.44291 | 33898 ft | 450 kts | 294° |
| 2026-04-30 06:11 | 15.51517 | 97.38569 | 33898 ft | 450 kts | 294° |
| 2026-04-30 06:12 | 15.54414 | 97.32817 | 33903 ft | 450 kts | 293° |
| 2026-04-30 06:12 | 15.57311 | 97.27058 | 33899 ft | 450 kts | 293° |
| 2026-04-30 06:13 | 15.60201 | 97.21309 | 33898 ft | 450 kts | 293° |
| 2026-04-30 06:13 | 15.63096 | 97.15545 | 33897 ft | 450 kts | 293° |
| 2026-04-30 06:14 | 15.65986 | 97.09788 | 33904 ft | 450 kts | 293° |
| 2026-04-30 06:14 | 15.68854 | 97.04070 | 33903 ft | 450 kts | 293° |
| 2026-04-30 06:15 | 15.71740 | 96.98311 | 33904 ft | 450 kts | 293° |
| 2026-04-30 06:15 | 15.74624 | 96.92552 | 33903 ft | 449 kts | 293° |
| 2026-04-30 06:16 | 15.77504 | 96.86793 | 33901 ft | 449 kts | 293° |
| 2026-04-30 06:16 | 15.80386 | 96.81029 | 33905 ft | 449 kts | 293° |
| 2026-04-30 06:17 | 15.83261 | 96.75275 | 33906 ft | 449 kts | 293° |
| 2026-04-30 06:17 | 15.86133 | 96.69520 | 33905 ft | 449 kts | 293° |
| 2026-04-30 06:18 | 15.89004 | 96.63762 | 33902 ft | 449 kts | 293° |
| 2026-04-30 06:18 | 15.91873 | 96.58004 | 33904 ft | 448 kts | 293° |
| 2026-04-30 06:19 | 15.94738 | 96.52250 | 33897 ft | 448 kts | 293° |
| 2026-04-30 06:19 | 15.97584 | 96.46527 | 33906 ft | 448 kts | 293° |
| 2026-04-30 06:20 | 16.00449 | 96.40764 | 33904 ft | 449 kts | 293° |
| 2026-04-30 06:20 | 16.03315 | 96.34992 | 33901 ft | 449 kts | 293° |
| 2026-04-30 06:21 | 16.06181 | 96.29218 | 33898 ft | 449 kts | 293° |
| 2026-04-30 06:21 | 16.09043 | 96.23446 | 33900 ft | 449 kts | 293° |
| 2026-04-30 06:22 | 16.11903 | 96.17673 | 33900 ft | 449 kts | 293° |
| 2026-04-30 06:22 | 16.14763 | 96.11894 | 33901 ft | 449 kts | 293° |
| 2026-04-30 06:23 | 16.17620 | 96.06120 | 33894 ft | 449 kts | 292° |
| 2026-04-30 06:23 | 16.20478 | 96.00335 | 33897 ft | 450 kts | 292° |
| 2026-04-30 06:24 | 16.23337 | 95.94545 | 33897 ft | 450 kts | 292° |
| 2026-04-30 06:24 | 16.26180 | 95.88782 | 33889 ft | 450 kts | 292° |
| 2026-04-30 06:25 | 16.29019 | 95.83023 | 33895 ft | 443 kts | 293° |
| 2026-04-30 06:25 | 16.31817 | 95.77348 | 33881 ft | 439 kts | 293° |
| 2026-04-30 06:26 | 16.34606 | 95.71677 | 33889 ft | 439 kts | 293° |
| 2026-04-30 06:26 | 16.37391 | 95.66011 | 33888 ft | 440 kts | 293° |
| 2026-04-30 06:27 | 16.40175 | 95.60342 | 33887 ft | 440 kts | 293° |
| 2026-04-30 06:27 | 16.42959 | 95.54672 | 33887 ft | 440 kts | 293° |
| 2026-04-30 06:28 | 16.45723 | 95.49037 | 33884 ft | 440 kts | 293° |
| 2026-04-30 06:28 | 16.48503 | 95.43364 | 33878 ft | 440 kts | 293° |
| 2026-04-30 06:29 | 16.51281 | 95.37692 | 33880 ft | 440 kts | 293° |
| 2026-04-30 06:29 | 16.54059 | 95.32014 | 33875 ft | 440 kts | 293° |
| 2026-04-30 06:30 | 16.56843 | 95.26318 | 34046 ft | 441 kts | 293° |
| 2026-04-30 06:30 | 16.58236 | 95.23466 | 34221 ft | 442 kts | 293° |
| 2026-04-30 06:30 | 16.59632 | 95.20608 | 34399 ft | 442 kts | 293° |
| 2026-04-30 06:30 | 16.61028 | 95.17748 | 34600 ft | 442 kts | 293° |
| 2026-04-30 06:31 | 16.62424 | 95.14887 | 34775 ft | 442 kts | 293° |
| 2026-04-30 06:31 | 16.63818 | 95.12030 | 34957 ft | 442 kts | 294° |
| 2026-04-30 06:31 | 16.65200 | 95.09199 | 35030 ft | 445 kts | 294° |
| 2026-04-30 06:31 | 16.66604 | 95.06318 | 35183 ft | 446 kts | 294° |
| 2026-04-30 06:32 | 16.68006 | 95.03438 | 35358 ft | 445 kts | 294° |
| 2026-04-30 06:32 | 16.69408 | 95.00558 | 35540 ft | 445 kts | 294° |
| 2026-04-30 06:32 | 16.70812 | 94.97673 | 35704 ft | 445 kts | 294° |
| 2026-04-30 06:32 | 16.72213 | 94.94792 | 35853 ft | 446 kts | 294° |
| 2026-04-30 06:33 | 16.73620 | 94.91897 | 35884 ft | 448 kts | 294° |
| 2026-04-30 06:33 | 16.76432 | 94.86111 | 35892 ft | 446 kts | 294° |
| 2026-04-30 06:34 | 16.79235 | 94.80338 | 35891 ft | 446 kts | 294° |
| 2026-04-30 06:34 | 16.82007 | 94.74550 | 35889 ft | 445 kts | 292° |
| 2026-04-30 06:35 | 16.84459 | 94.68633 | 35898 ft | 444 kts | 289° |
| 2026-04-30 06:35 | 16.86826 | 94.62671 | 35902 ft | 444 kts | 290° |
| 2026-04-30 06:36 | 16.89215 | 94.56769 | 35912 ft | 444 kts | 290° |
| 2026-04-30 06:36 | 16.91652 | 94.50841 | 35906 ft | 444 kts | 290° |
| 2026-04-30 06:37 | 16.94094 | 94.44919 | 35906 ft | 444 kts | 290° |
| 2026-04-30 06:37 | 16.96535 | 94.38991 | 35908 ft | 444 kts | 290° |
| 2026-04-30 06:38 | 16.98970 | 94.33066 | 35908 ft | 444 kts | 290° |
| 2026-04-30 06:38 | 17.01407 | 94.27130 | 35912 ft | 444 kts | 290° |
| 2026-04-30 06:39 | 17.03845 | 94.21185 | 35911 ft | 445 kts | 290° |
| 2026-04-30 06:39 | 17.06285 | 94.15235 | 35912 ft | 445 kts | 290° |
| 2026-04-30 06:40 | 17.08718 | 94.09293 | 35908 ft | 445 kts | 290° |
| 2026-04-30 06:40 | 17.11148 | 94.03351 | 35908 ft | 445 kts | 290° |
| 2026-04-30 06:41 | 17.13578 | 93.97404 | 35906 ft | 444 kts | 290° |
| 2026-04-30 06:41 | 17.15992 | 93.91492 | 35906 ft | 444 kts | 290° |
| 2026-04-30 06:42 | 17.18416 | 93.85547 | 35907 ft | 444 kts | 290° |
| 2026-04-30 06:42 | 17.20839 | 93.79602 | 35912 ft | 445 kts | 290° |
| 2026-04-30 06:43 | 17.23267 | 93.73634 | 35907 ft | 446 kts | 290° |
| 2026-04-30 06:43 | 17.25696 | 93.67662 | 35904 ft | 446 kts | 290° |
| 2026-04-30 06:44 | 17.28121 | 93.61691 | 35904 ft | 446 kts | 290° |
| 2026-04-30 06:44 | 17.30545 | 93.55719 | 35907 ft | 446 kts | 290° |
| 2026-04-30 06:45 | 17.32950 | 93.49788 | 35904 ft | 446 kts | 290° |
| 2026-04-30 06:45 | 17.35371 | 93.43810 | 35900 ft | 446 kts | 289° |
| 2026-04-30 06:46 | 17.37788 | 93.37836 | 35907 ft | 447 kts | 290° |
| 2026-04-30 06:46 | 17.40222 | 93.31813 | 35905 ft | 450 kts | 290° |
| 2026-04-30 06:47 | 17.42664 | 93.25767 | 35901 ft | 451 kts | 290° |
| 2026-04-30 06:47 | 17.45103 | 93.19721 | 35905 ft | 451 kts | 290° |
| 2026-04-30 06:48 | 17.47542 | 93.13671 | 35901 ft | 450 kts | 290° |
| 2026-04-30 06:48 | 17.49962 | 93.07659 | 35905 ft | 450 kts | 290° |
| 2026-04-30 06:49 | 17.51999 | 93.02594 | 35906 ft | 450 kts | 289° |
| 2026-04-30 06:49 | 17.54429 | 92.96546 | 35902 ft | 450 kts | 289° |
| 2026-04-30 06:50 | 17.56859 | 92.90492 | 35896 ft | 450 kts | 289° |
| 2026-04-30 06:50 | 17.59269 | 92.84483 | 35909 ft | 450 kts | 289° |
| 2026-04-30 06:51 | 17.61694 | 92.78429 | 35900 ft | 450 kts | 289° |
| 2026-04-30 06:51 | 17.64117 | 92.72374 | 35905 ft | 450 kts | 289° |
| 2026-04-30 06:52 | 17.66540 | 92.66315 | 35908 ft | 450 kts | 289° |
| 2026-04-30 06:52 | 17.68957 | 92.60265 | 35900 ft | 450 kts | 289° |
| 2026-04-30 06:53 | 17.71371 | 92.54211 | 35906 ft | 450 kts | 289° |
| 2026-04-30 06:53 | 17.73784 | 92.48155 | 35899 ft | 450 kts | 289° |
| 2026-04-30 06:54 | 17.76204 | 92.42076 | 35909 ft | 453 kts | 289° |
| 2026-04-30 06:54 | 17.78630 | 92.35974 | 35896 ft | 453 kts | 289° |
| 2026-04-30 06:55 | 17.81038 | 92.29915 | 35908 ft | 453 kts | 289° |
| 2026-04-30 06:55 | 17.83460 | 92.23813 | 35897 ft | 453 kts | 289° |
| 2026-04-30 06:56 | 17.85881 | 92.17707 | 35897 ft | 453 kts | 289° |
| 2026-04-30 06:56 | 17.88303 | 92.11592 | 35894 ft | 453 kts | 289° |
| 2026-04-30 06:57 | 17.90721 | 92.05480 | 35894 ft | 453 kts | 289° |
| 2026-04-30 06:57 | 17.93137 | 91.99367 | 35893 ft | 453 kts | 289° |
| 2026-04-30 06:58 | 17.95528 | 91.93241 | 35892 ft | 453 kts | 289° |
| 2026-04-30 06:58 | 17.97892 | 91.87108 | 35892 ft | 454 kts | 288° |
| 2026-04-30 06:59 | 18.00250 | 91.80989 | 35892 ft | 455 kts | 288° |
| 2026-04-30 06:59 | 18.02632 | 91.74822 | 35889 ft | 455 kts | 289° |
| 2026-04-30 07:00 | 18.05011 | 91.68659 | 35889 ft | 455 kts | 288° |
| 2026-04-30 07:00 | 18.07386 | 91.62500 | 35897 ft | 455 kts | 288° |
| 2026-04-30 07:01 | 18.09763 | 91.56329 | 35898 ft | 457 kts | 289° |
| 2026-04-30 07:01 | 18.12150 | 91.50123 | 35897 ft | 459 kts | 288° |
| 2026-04-30 07:02 | 18.14541 | 91.43904 | 35895 ft | 459 kts | 288° |
| 2026-04-30 07:02 | 18.16914 | 91.37719 | 35894 ft | 458 kts | 288° |
| 2026-04-30 07:03 | 18.19303 | 91.31488 | 35897 ft | 458 kts | 288° |
| 2026-04-30 07:03 | 18.21685 | 91.25269 | 35898 ft | 458 kts | 288° |
| 2026-04-30 07:04 | 18.24067 | 91.19043 | 35898 ft | 458 kts | 288° |
| 2026-04-30 07:04 | 18.26445 | 91.12821 | 35900 ft | 458 kts | 288° |
| 2026-04-30 07:05 | 18.29999 | 91.03509 | 35897 ft | 456 kts | 288° |
| 2026-04-30 07:05 | 18.32346 | 90.97348 | 35898 ft | 456 kts | 288° |
| 2026-04-30 07:06 | 18.34708 | 90.91143 | 35897 ft | 456 kts | 288° |
| 2026-04-30 07:06 | 18.37067 | 90.84940 | 35897 ft | 456 kts | 288° |
| 2026-04-30 07:07 | 18.39423 | 90.78735 | 35898 ft | 456 kts | 288° |
| 2026-04-30 07:07 | 18.41775 | 90.72536 | 35896 ft | 455 kts | 288° |
| 2026-04-30 07:08 | 18.44113 | 90.66369 | 35892 ft | 453 kts | 288° |
| 2026-04-30 07:08 | 18.46449 | 90.60196 | 35887 ft | 454 kts | 288° |
| 2026-04-30 07:09 | 18.48789 | 90.54005 | 35883 ft | 455 kts | 288° |
| 2026-04-30 07:09 | 18.51111 | 90.47857 | 35884 ft | 455 kts | 288° |
| 2026-04-30 07:10 | 18.53449 | 90.41660 | 35881 ft | 455 kts | 288° |
| 2026-04-30 07:10 | 18.55782 | 90.35470 | 35885 ft | 454 kts | 287° |
| 2026-04-30 07:11 | 18.58105 | 90.29300 | 35875 ft | 451 kts | 287° |
| 2026-04-30 07:11 | 18.60411 | 90.23167 | 35875 ft | 450 kts | 287° |
| 2026-04-30 07:12 | 18.62715 | 90.17027 | 35875 ft | 450 kts | 287° |
| 2026-04-30 07:12 | 18.65018 | 90.10887 | 35873 ft | 450 kts | 287° |
| 2026-04-30 07:13 | 18.67319 | 90.04747 | 35870 ft | 450 kts | 287° |
| 2026-04-30 07:13 | 18.69602 | 89.98645 | 35905 ft | 450 kts | 287° |
| 2026-04-30 07:14 | 18.70751 | 89.95575 | 36050 ft | 450 kts | 287° |
| 2026-04-30 07:14 | 18.71899 | 89.92501 | 36215 ft | 450 kts | 287° |
| 2026-04-30 07:14 | 18.73047 | 89.89430 | 36395 ft | 450 kts | 287° |
| 2026-04-30 07:14 | 18.74191 | 89.86364 | 36565 ft | 449 kts | 287° |
| 2026-04-30 07:15 | 18.75335 | 89.83298 | 36736 ft | 449 kts | 287° |
| 2026-04-30 07:15 | 18.76479 | 89.80232 | 36906 ft | 448 kts | 287° |
| 2026-04-30 07:15 | 18.77620 | 89.77169 | 37084 ft | 448 kts | 287° |
| 2026-04-30 07:15 | 18.78760 | 89.74107 | 37242 ft | 448 kts | 287° |
| 2026-04-30 07:16 | 18.79899 | 89.71049 | 37405 ft | 448 kts | 287° |
| 2026-04-30 07:16 | 18.81035 | 89.67992 | 37552 ft | 447 kts | 287° |
| 2026-04-30 07:16 | 18.82171 | 89.64937 | 37703 ft | 447 kts | 287° |
| 2026-04-30 07:16 | 18.83307 | 89.61879 | 37827 ft | 447 kts | 287° |
| 2026-04-30 07:17 | 18.85584 | 89.55744 | 37842 ft | 449 kts | 287° |
| 2026-04-30 07:18 | 18.88991 | 89.46559 | 37842 ft | 447 kts | 287° |
| 2026-04-30 07:18 | 18.91241 | 89.40480 | 37846 ft | 447 kts | 287° |
| 2026-04-30 07:19 | 18.93501 | 89.34368 | 37843 ft | 447 kts | 287° |
| 2026-04-30 07:19 | 18.95762 | 89.28246 | 37842 ft | 447 kts | 287° |
| 2026-04-30 07:20 | 18.98018 | 89.22128 | 37839 ft | 447 kts | 287° |
| 2026-04-30 07:20 | 19.00282 | 89.15983 | 37839 ft | 450 kts | 287° |
| 2026-04-30 07:21 | 19.02551 | 89.09817 | 37840 ft | 450 kts | 287° |
| 2026-04-30 07:21 | 19.04821 | 89.03645 | 37838 ft | 450 kts | 287° |
| 2026-04-30 07:22 | 19.08066 | 88.94808 | 37836 ft | 450 kts | 287° |
| 2026-04-30 07:22 | 19.10329 | 88.88634 | 37835 ft | 450 kts | 287° |
| 2026-04-30 07:23 | 19.12590 | 88.82457 | 37831 ft | 450 kts | 287° |
| 2026-04-30 07:23 | 19.14851 | 88.76272 | 37833 ft | 451 kts | 287° |
| 2026-04-30 07:24 | 19.17113 | 88.70082 | 37834 ft | 451 kts | 287° |
| 2026-04-30 07:24 | 19.19381 | 88.63894 | 37831 ft | 451 kts | 288° |
| 2026-04-30 07:25 | 19.21731 | 88.57728 | 37834 ft | 452 kts | 288° |
| 2026-04-30 07:25 | 19.24090 | 88.51599 | 37837 ft | 452 kts | 288° |
| 2026-04-30 07:26 | 19.26445 | 88.45440 | 37825 ft | 451 kts | 289° |
| 2026-04-30 07:26 | 19.28786 | 88.39287 | 37828 ft | 450 kts | 288° |
| 2026-04-30 07:27 | 19.31118 | 88.33146 | 37827 ft | 449 kts | 288° |
| 2026-04-30 07:27 | 19.33445 | 88.27007 | 37827 ft | 449 kts | 288° |
| 2026-04-30 07:28 | 19.35771 | 88.20866 | 37822 ft | 449 kts | 288° |
| 2026-04-30 07:28 | 19.38093 | 88.14729 | 37828 ft | 449 kts | 288° |
| 2026-04-30 07:29 | 19.40397 | 88.08633 | 37825 ft | 449 kts | 289° |
| 2026-04-30 07:29 | 19.42708 | 88.02511 | 37818 ft | 446 kts | 289° |
| 2026-04-30 07:30 | 19.46150 | 87.93378 | 37819 ft | 445 kts | 289° |
| 2026-04-30 07:31 | 19.48441 | 87.87292 | 37820 ft | 445 kts | 289° |
| 2026-04-30 07:31 | 19.50731 | 87.81199 | 37811 ft | 445 kts | 289° |
| 2026-04-30 07:32 | 19.53016 | 87.75114 | 37810 ft | 445 kts | 289° |
| 2026-04-30 07:32 | 19.55302 | 87.69018 | 37807 ft | 444 kts | 290° |
| 2026-04-30 07:33 | 19.57576 | 87.62947 | 37809 ft | 442 kts | 290° |
| 2026-04-30 07:33 | 19.59829 | 87.56928 | 37809 ft | 442 kts | 290° |
| 2026-04-30 07:34 | 19.62095 | 87.50866 | 37805 ft | 442 kts | 290° |
| 2026-04-30 07:34 | 19.64357 | 87.44808 | 37803 ft | 442 kts | 290° |
| 2026-04-30 07:35 | 19.66616 | 87.38748 | 37796 ft | 442 kts | 290° |
| 2026-04-30 07:35 | 19.68874 | 87.32684 | 37792 ft | 442 kts | 290° |
| 2026-04-30 07:36 | 19.71133 | 87.26610 | 37802 ft | 443 kts | 290° |
| 2026-04-30 07:36 | 19.73396 | 87.20521 | 37804 ft | 443 kts | 290° |
| 2026-04-30 07:37 | 19.75656 | 87.14431 | 37800 ft | 443 kts | 290° |
| 2026-04-30 07:37 | 19.77916 | 87.08335 | 37807 ft | 443 kts | 290° |
| 2026-04-30 07:38 | 19.79796 | 87.03257 | 37796 ft | 444 kts | 290° |
| 2026-04-30 07:38 | 19.82421 | 86.96157 | 37794 ft | 444 kts | 290° |
| 2026-04-30 07:39 | 19.84676 | 86.90051 | 37792 ft | 444 kts | 291° |
| 2026-04-30 07:39 | 19.86930 | 86.83943 | 37794 ft | 444 kts | 291° |
| 2026-04-30 07:40 | 19.88802 | 86.78864 | 37797 ft | 444 kts | 291° |
| 2026-04-30 07:40 | 19.91048 | 86.72761 | 37796 ft | 443 kts | 291° |
| 2026-04-30 07:41 | 19.93298 | 86.66654 | 37796 ft | 443 kts | 291° |
| 2026-04-30 07:41 | 19.95541 | 86.60538 | 37793 ft | 443 kts | 291° |
| 2026-04-30 07:42 | 19.97779 | 86.54421 | 37794 ft | 443 kts | 291° |
| 2026-04-30 07:42 | 20.00009 | 86.48327 | 37796 ft | 442 kts | 291° |
| 2026-04-30 07:43 | 20.02236 | 86.42239 | 37795 ft | 441 kts | 291° |
| 2026-04-30 07:43 | 20.04456 | 86.36160 | 37789 ft | 441 kts | 291° |
| 2026-04-30 07:44 | 20.06662 | 86.30114 | 37789 ft | 441 kts | 291° |
| 2026-04-30 07:44 | 20.08880 | 86.24025 | 37795 ft | 441 kts | 291° |
| 2026-04-30 07:45 | 20.11097 | 86.17933 | 37787 ft | 442 kts | 292° |
| 2026-04-30 07:45 | 20.13326 | 86.11826 | 37788 ft | 442 kts | 292° |
| 2026-04-30 07:46 | 20.15552 | 86.05724 | 37791 ft | 442 kts | 292° |
| 2026-04-30 07:46 | 20.17770 | 85.99630 | 37794 ft | 442 kts | 292° |
| 2026-04-30 07:47 | 20.19976 | 85.93564 | 37800 ft | 442 kts | 292° |
| 2026-04-30 07:47 | 20.22207 | 85.87425 | 37799 ft | 442 kts | 292° |
| 2026-04-30 07:48 | 20.24409 | 85.81356 | 37801 ft | 442 kts | 292° |
| 2026-04-30 07:48 | 20.26758 | 85.75309 | 37804 ft | 441 kts | 295° |
| 2026-04-30 07:49 | 20.29245 | 85.69330 | 37795 ft | 442 kts | 295° |
| 2026-04-30 07:49 | 20.31720 | 85.63344 | 37788 ft | 441 kts | 295° |
| 2026-04-30 07:50 | 20.34164 | 85.57345 | 37776 ft | 441 kts | 294° |
| 2026-04-30 07:50 | 20.36597 | 85.51336 | 37769 ft | 441 kts | 294° |
| 2026-04-30 07:51 | 20.39027 | 85.45324 | 37767 ft | 441 kts | 294° |
| 2026-04-30 07:51 | 20.41440 | 85.39350 | 37772 ft | 441 kts | 295° |
| 2026-04-30 07:52 | 20.43854 | 85.33368 | 37759 ft | 438 kts | 294° |
| 2026-04-30 07:52 | 20.46262 | 85.27397 | 37756 ft | 438 kts | 294° |
| 2026-04-30 07:53 | 20.48666 | 85.21427 | 37754 ft | 438 kts | 294° |
| 2026-04-30 07:53 | 20.51074 | 85.15444 | 37752 ft | 438 kts | 294° |
| 2026-04-30 07:54 | 20.53474 | 85.09470 | 37752 ft | 438 kts | 294° |
| 2026-04-30 07:54 | 20.55872 | 85.03494 | 37740 ft | 438 kts | 295° |
| 2026-04-30 07:55 | 20.58246 | 84.97570 | 37762 ft | 436 kts | 295° |
| 2026-04-30 07:55 | 20.60629 | 84.91618 | 37755 ft | 436 kts | 295° |
| 2026-04-30 07:56 | 20.63009 | 84.85665 | 37757 ft | 436 kts | 295° |
| 2026-04-30 07:56 | 20.65385 | 84.79716 | 37758 ft | 435 kts | 295° |
| 2026-04-30 07:57 | 20.67763 | 84.73758 | 37757 ft | 436 kts | 295° |
| 2026-04-30 07:57 | 20.70133 | 84.67810 | 37753 ft | 435 kts | 295° |
| 2026-04-30 07:58 | 20.72505 | 84.61842 | 37748 ft | 437 kts | 295° |
| 2026-04-30 07:58 | 20.74864 | 84.55914 | 37753 ft | 435 kts | 295° |
| 2026-04-30 07:59 | 20.77224 | 84.49972 | 37749 ft | 433 kts | 295° |
| 2026-04-30 07:59 | 20.79579 | 84.44034 | 37752 ft | 433 kts | 295° |
| 2026-04-30 08:00 | 20.83104 | 84.35132 | 37740 ft | 433 kts | 295° |
| 2026-04-30 08:00 | 20.85452 | 84.29194 | 37740 ft | 433 kts | 294° |
| 2026-04-30 08:01 | 20.87800 | 84.23252 | 37737 ft | 435 kts | 295° |
| 2026-04-30 08:01 | 20.90151 | 84.17294 | 37726 ft | 435 kts | 295° |
| 2026-04-30 08:02 | 20.93667 | 84.08367 | 37731 ft | 436 kts | 295° |
| 2026-04-30 08:03 | 20.98367 | 83.96411 | 37712 ft | 436 kts | 295° |
| 2026-04-30 08:04 | 21.00712 | 83.90433 | 37709 ft | 436 kts | 295° |
| 2026-04-30 08:04 | 21.03053 | 83.84460 | 37725 ft | 435 kts | 295° |
| 2026-04-30 08:05 | 21.05392 | 83.78486 | 37718 ft | 435 kts | 295° |
| 2026-04-30 08:05 | 21.07735 | 83.72506 | 37715 ft | 435 kts | 295° |
| 2026-04-30 08:06 | 21.10072 | 83.66523 | 37715 ft | 436 kts | 295° |
| 2026-04-30 08:06 | 21.12397 | 83.60562 | 37719 ft | 436 kts | 295° |
| 2026-04-30 08:07 | 21.14729 | 83.54578 | 37713 ft | 436 kts | 295° |
| 2026-04-30 08:07 | 21.17060 | 83.48589 | 37723 ft | 435 kts | 295° |
| 2026-04-30 08:08 | 21.19384 | 83.42614 | 37728 ft | 434 kts | 295° |
| 2026-04-30 08:08 | 21.21709 | 83.36631 | 37722 ft | 434 kts | 295° |
| 2026-04-30 08:09 | 21.24027 | 83.30657 | 37720 ft | 434 kts | 295° |
| 2026-04-30 08:09 | 21.26330 | 83.24714 | 37723 ft | 434 kts | 295° |
| 2026-04-30 08:10 | 21.28646 | 83.18728 | 37730 ft | 434 kts | 295° |
| 2026-04-30 08:10 | 21.30958 | 83.12746 | 37727 ft | 433 kts | 295° |
| 2026-04-30 08:11 | 21.33257 | 83.06788 | 37740 ft | 431 kts | 296° |
| 2026-04-30 08:11 | 21.35549 | 83.00844 | 37729 ft | 431 kts | 296° |
| 2026-04-30 08:12 | 21.37840 | 82.94898 | 37730 ft | 431 kts | 296° |
| 2026-04-30 08:12 | 21.40112 | 82.88993 | 37735 ft | 431 kts | 296° |
| 2026-04-30 08:13 | 21.42399 | 82.83040 | 37730 ft | 431 kts | 296° |
| 2026-04-30 08:13 | 21.44682 | 82.77091 | 37723 ft | 431 kts | 296° |
| 2026-04-30 08:14 | 21.46961 | 82.71141 | 37733 ft | 430 kts | 296° |
| 2026-04-30 08:14 | 21.49208 | 82.65199 | 37729 ft | 430 kts | 294° |
| 2026-04-30 08:15 | 21.51046 | 82.59065 | 37735 ft | 432 kts | 290° |
| 2026-04-30 08:15 | 21.52722 | 82.52922 | 37737 ft | 432 kts | 290° |
| 2026-04-30 08:16 | 21.54464 | 82.46752 | 37732 ft | 431 kts | 291° |
| 2026-04-30 08:16 | 21.56249 | 82.40608 | 37737 ft | 431 kts | 291° |
| 2026-04-30 08:17 | 21.58049 | 82.34455 | 37741 ft | 431 kts | 292° |
| 2026-04-30 08:17 | 21.59842 | 82.28315 | 37749 ft | 431 kts | 292° |
| 2026-04-30 08:18 | 21.61631 | 82.22175 | 37740 ft | 430 kts | 292° |
| 2026-04-30 08:18 | 21.63415 | 82.16033 | 37745 ft | 430 kts | 292° |
| 2026-04-30 08:19 | 21.65197 | 82.09892 | 37750 ft | 430 kts | 292° |
| 2026-04-30 08:19 | 21.66966 | 82.03784 | 37753 ft | 430 kts | 292° |
| 2026-04-30 08:20 | 21.68744 | 81.97641 | 37744 ft | 430 kts | 292° |
| 2026-04-30 08:20 | 21.70520 | 81.91492 | 37752 ft | 430 kts | 292° |
| 2026-04-30 08:21 | 21.72292 | 81.85342 | 37755 ft | 430 kts | 292° |
| 2026-04-30 08:21 | 21.74062 | 81.79191 | 37751 ft | 430 kts | 292° |
| 2026-04-30 08:22 | 21.75830 | 81.73038 | 37750 ft | 430 kts | 292° |
| 2026-04-30 08:22 | 21.77581 | 81.66935 | 37752 ft | 430 kts | 292° |
| 2026-04-30 08:23 | 21.79389 | 81.60858 | 37747 ft | 427 kts | 295° |
| 2026-04-30 08:23 | 21.81566 | 81.54920 | 37749 ft | 425 kts | 297° |
| 2026-04-30 08:24 | 21.83806 | 81.49027 | 37753 ft | 426 kts | 296° |
| 2026-04-30 08:24 | 21.85994 | 81.43105 | 37754 ft | 426 kts | 296° |
| 2026-04-30 08:25 | 21.88147 | 81.37159 | 37754 ft | 426 kts | 296° |
| 2026-04-30 08:25 | 21.90288 | 81.31212 | 37758 ft | 426 kts | 296° |
| 2026-04-30 08:26 | 21.92430 | 81.25256 | 37762 ft | 427 kts | 296° |
| 2026-04-30 08:26 | 21.94582 | 81.19278 | 37767 ft | 429 kts | 296° |
| 2026-04-30 08:27 | 21.96735 | 81.13286 | 37780 ft | 429 kts | 296° |
| 2026-04-30 08:27 | 21.98874 | 81.07321 | 37780 ft | 429 kts | 296° |
| 2026-04-30 08:28 | 22.01026 | 81.01318 | 37773 ft | 429 kts | 296° |
| 2026-04-30 08:28 | 22.03172 | 80.95321 | 37773 ft | 429 kts | 296° |
| 2026-04-30 08:29 | 22.04957 | 80.90329 | 37788 ft | 429 kts | 296° |
| 2026-04-30 08:29 | 22.07466 | 80.83302 | 37803 ft | 430 kts | 296° |
| 2026-04-30 08:30 | 22.09599 | 80.77316 | 37801 ft | 430 kts | 296° |
| 2026-04-30 08:30 | 22.11397 | 80.72265 | 37806 ft | 430 kts | 296° |
| 2026-04-30 08:31 | 22.13528 | 80.66275 | 37808 ft | 430 kts | 296° |
| 2026-04-30 08:31 | 22.15667 | 80.60250 | 37802 ft | 430 kts | 296° |
| 2026-04-30 08:32 | 22.17805 | 80.54222 | 37798 ft | 430 kts | 295° |
| 2026-04-30 08:32 | 22.19947 | 80.48178 | 37808 ft | 431 kts | 295° |
| 2026-04-30 08:33 | 22.22089 | 80.42121 | 37799 ft | 432 kts | 295° |
| 2026-04-30 08:33 | 22.24235 | 80.36054 | 37800 ft | 432 kts | 295° |
| 2026-04-30 08:34 | 22.26374 | 80.29999 | 37795 ft | 432 kts | 295° |
| 2026-04-30 08:34 | 22.28502 | 80.23970 | 37794 ft | 432 kts | 295° |
| 2026-04-30 08:35 | 22.30641 | 80.17899 | 37797 ft | 432 kts | 295° |
| 2026-04-30 08:35 | 22.32776 | 80.11830 | 37794 ft | 431 kts | 295° |
| 2026-04-30 08:36 | 22.34907 | 80.05767 | 37793 ft | 431 kts | 295° |
| 2026-04-30 08:36 | 22.37033 | 79.99710 | 37797 ft | 431 kts | 295° |
| 2026-04-30 08:37 | 22.39146 | 79.93682 | 37796 ft | 431 kts | 295° |
| 2026-04-30 08:37 | 22.41270 | 79.87616 | 37805 ft | 431 kts | 295° |
| 2026-04-30 08:38 | 22.43389 | 79.81551 | 37805 ft | 431 kts | 295° |
| 2026-04-30 08:38 | 22.45507 | 79.75484 | 37807 ft | 431 kts | 295° |
| 2026-04-30 08:39 | 22.47615 | 79.69428 | 37817 ft | 429 kts | 295° |
| 2026-04-30 08:39 | 22.49713 | 79.63403 | 37816 ft | 427 kts | 295° |
| 2026-04-30 08:40 | 22.51793 | 79.57424 | 37822 ft | 428 kts | 295° |
| 2026-04-30 08:40 | 22.53884 | 79.51403 | 37827 ft | 428 kts | 295° |
| 2026-04-30 08:41 | 22.55974 | 79.45375 | 37827 ft | 428 kts | 295° |
| 2026-04-30 08:41 | 22.58065 | 79.39351 | 37824 ft | 427 kts | 295° |
| 2026-04-30 08:42 | 22.60170 | 79.33335 | 37826 ft | 427 kts | 295° |
| 2026-04-30 08:42 | 22.62261 | 79.27355 | 37836 ft | 427 kts | 295° |
| 2026-04-30 08:43 | 22.64362 | 79.21335 | 37838 ft | 427 kts | 295° |
| 2026-04-30 08:43 | 22.66455 | 79.15323 | 37836 ft | 427 kts | 295° |
| 2026-04-30 08:44 | 22.68546 | 79.09307 | 37833 ft | 427 kts | 295° |
| 2026-04-30 08:44 | 22.70636 | 79.03287 | 37825 ft | 428 kts | 295° |
| 2026-04-30 08:45 | 22.72735 | 78.97237 | 37836 ft | 430 kts | 295° |
| 2026-04-30 08:45 | 22.74828 | 78.91185 | 37830 ft | 428 kts | 295° |
| 2026-04-30 08:46 | 22.76913 | 78.85153 | 37827 ft | 428 kts | 295° |
| 2026-04-30 08:46 | 22.78998 | 78.79115 | 37823 ft | 428 kts | 295° |
| 2026-04-30 08:47 | 22.81081 | 78.73073 | 37823 ft | 428 kts | 295° |
| 2026-04-30 08:47 | 22.83146 | 78.67075 | 37796 ft | 428 kts | 295° |
| 2026-04-30 08:48 | 22.85232 | 78.61011 | 37808 ft | 431 kts | 295° |
| 2026-04-30 08:48 | 22.87324 | 78.54918 | 37808 ft | 431 kts | 295° |
| 2026-04-30 08:49 | 22.89411 | 78.48827 | 37807 ft | 431 kts | 295° |
| 2026-04-30 08:49 | 22.91496 | 78.42735 | 37807 ft | 431 kts | 295° |
| 2026-04-30 08:50 | 22.93579 | 78.36640 | 37806 ft | 431 kts | 295° |
| 2026-04-30 08:50 | 22.95661 | 78.30540 | 37804 ft | 431 kts | 295° |
| 2026-04-30 08:51 | 22.97740 | 78.24442 | 37805 ft | 431 kts | 295° |
| 2026-04-30 08:51 | 22.99817 | 78.18339 | 37807 ft | 430 kts | 295° |
| 2026-04-30 08:52 | 23.01884 | 78.12258 | 37803 ft | 429 kts | 295° |
| 2026-04-30 08:52 | 23.03948 | 78.06177 | 37813 ft | 429 kts | 295° |
| 2026-04-30 08:53 | 23.06009 | 78.00097 | 37807 ft | 429 kts | 295° |
| 2026-04-30 08:53 | 23.08067 | 77.94015 | 37817 ft | 429 kts | 294° |
| 2026-04-30 08:54 | 23.10122 | 77.87935 | 37814 ft | 429 kts | 294° |
| 2026-04-30 08:54 | 23.12173 | 77.81856 | 37815 ft | 429 kts | 294° |
| 2026-04-30 08:55 | 23.14225 | 77.75770 | 37811 ft | 429 kts | 294° |
| 2026-04-30 08:55 | 23.16272 | 77.69683 | 37816 ft | 429 kts | 294° |
| 2026-04-30 08:56 | 23.18305 | 77.63633 | 37810 ft | 429 kts | 294° |
| 2026-04-30 08:56 | 23.20349 | 77.57542 | 37797 ft | 429 kts | 294° |
| 2026-04-30 08:57 | 23.22396 | 77.51433 | 37802 ft | 431 kts | 294° |
| 2026-04-30 08:57 | 23.24445 | 77.45310 | 37806 ft | 431 kts | 294° |
| 2026-04-30 08:58 | 23.26497 | 77.39168 | 37804 ft | 433 kts | 294° |
| 2026-04-30 08:58 | 23.28551 | 77.33008 | 37803 ft | 433 kts | 294° |
| 2026-04-30 08:59 | 23.30486 | 77.26783 | 37799 ft | 435 kts | 292° |
| 2026-04-30 08:59 | 23.32324 | 77.20517 | 37799 ft | 435 kts | 292° |
| 2026-04-30 09:00 | 23.34170 | 77.14266 | 37791 ft | 433 kts | 292° |
| 2026-04-30 09:00 | 23.36030 | 77.08033 | 37787 ft | 433 kts | 292° |
| 2026-04-30 09:01 | 23.37897 | 77.01801 | 37782 ft | 433 kts | 292° |
| 2026-04-30 09:01 | 23.39761 | 76.95570 | 37774 ft | 433 kts | 292° |
| 2026-04-30 09:02 | 23.42536 | 76.86261 | 37760 ft | 430 kts | 292° |
| 2026-04-30 09:02 | 23.44377 | 76.80078 | 37783 ft | 429 kts | 292° |
| 2026-04-30 09:03 | 23.46216 | 76.73893 | 37771 ft | 429 kts | 292° |
| 2026-04-30 09:03 | 23.48042 | 76.67739 | 37771 ft | 430 kts | 292° |
| 2026-04-30 09:04 | 23.49876 | 76.61545 | 37766 ft | 429 kts | 293° |
| 2026-04-30 09:04 | 23.51705 | 76.55359 | 37766 ft | 429 kts | 293° |
| 2026-04-30 09:05 | 23.53532 | 76.49174 | 37752 ft | 429 kts | 292° |
| 2026-04-30 09:05 | 23.55368 | 76.42951 | 37758 ft | 432 kts | 292° |
| 2026-04-30 09:06 | 23.57206 | 76.36707 | 37760 ft | 433 kts | 292° |
| 2026-04-30 09:06 | 23.59044 | 76.30448 | 37766 ft | 433 kts | 292° |
| 2026-04-30 09:07 | 23.60877 | 76.24195 | 37762 ft | 433 kts | 292° |
| 2026-04-30 09:07 | 23.62710 | 76.17937 | 37771 ft | 433 kts | 292° |
| 2026-04-30 09:08 | 23.64541 | 76.11674 | 37758 ft | 434 kts | 292° |
| 2026-04-30 09:08 | 23.66376 | 76.05389 | 37771 ft | 436 kts | 292° |
| 2026-04-30 09:09 | 23.68210 | 75.99095 | 37771 ft | 436 kts | 292° |
| 2026-04-30 09:09 | 23.70043 | 75.92786 | 37771 ft | 436 kts | 292° |
| 2026-04-30 09:10 | 23.71860 | 75.86478 | 37780 ft | 436 kts | 292° |
| 2026-04-30 09:10 | 23.73677 | 75.80166 | 37773 ft | 435 kts | 292° |
| 2026-04-30 09:11 | 23.75493 | 75.73859 | 37777 ft | 436 kts | 291° |
| 2026-04-30 09:11 | 23.77311 | 75.67534 | 37777 ft | 437 kts | 291° |
| 2026-04-30 09:12 | 23.79130 | 75.61196 | 37790 ft | 437 kts | 291° |
| 2026-04-30 09:12 | 23.80945 | 75.54859 | 37790 ft | 437 kts | 291° |
| 2026-04-30 09:13 | 23.82758 | 75.48519 | 37790 ft | 437 kts | 291° |
| 2026-04-30 09:13 | 23.84569 | 75.42173 | 37783 ft | 437 kts | 291° |
| 2026-04-30 09:14 | 23.86378 | 75.35828 | 37790 ft | 438 kts | 291° |
| 2026-04-30 09:14 | 23.88184 | 75.29479 | 37802 ft | 438 kts | 291° |
| 2026-04-30 09:15 | 23.89989 | 75.23125 | 37802 ft | 438 kts | 291° |
| 2026-04-30 09:15 | 23.91790 | 75.16772 | 37804 ft | 438 kts | 291° |
| 2026-04-30 09:16 | 23.93590 | 75.10414 | 37804 ft | 438 kts | 291° |
| 2026-04-30 09:16 | 23.95388 | 75.04053 | 37811 ft | 438 kts | 291° |
| 2026-04-30 09:17 | 23.97179 | 74.97701 | 37813 ft | 436 kts | 291° |
| 2026-04-30 09:17 | 23.98961 | 74.91369 | 37812 ft | 435 kts | 291° |
| 2026-04-30 09:18 | 24.00728 | 74.85082 | 37804 ft | 435 kts | 291° |
| 2026-04-30 09:18 | 24.02504 | 74.78758 | 37804 ft | 435 kts | 291° |
| 2026-04-30 09:19 | 24.03992 | 74.73448 | 37810 ft | 435 kts | 291° |
| 2026-04-30 09:19 | 24.05882 | 74.67168 | 37810 ft | 434 kts | 292° |
| 2026-04-30 09:20 | 24.07839 | 74.60964 | 37813 ft | 434 kts | 292° |
| 2026-04-30 09:20 | 24.09795 | 74.54706 | 37807 ft | 434 kts | 292° |
| 2026-04-30 09:21 | 24.11727 | 74.48442 | 37806 ft | 435 kts | 292° |
| 2026-04-30 09:21 | 24.13652 | 74.42166 | 37807 ft | 435 kts | 292° |
| 2026-04-30 09:22 | 24.15573 | 74.35891 | 37807 ft | 435 kts | 292° |
| 2026-04-30 09:22 | 24.17490 | 74.29622 | 37800 ft | 434 kts | 292° |
| 2026-04-30 09:23 | 24.19406 | 74.23348 | 37800 ft | 434 kts | 292° |
| 2026-04-30 09:23 | 24.21317 | 74.17080 | 37796 ft | 434 kts | 292° |
| 2026-04-30 09:24 | 24.23245 | 74.10822 | 37794 ft | 434 kts | 292° |
| 2026-04-30 09:24 | 24.25204 | 74.04571 | 37785 ft | 434 kts | 292° |
| 2026-04-30 09:25 | 24.27160 | 73.98321 | 37784 ft | 434 kts | 292° |
| 2026-04-30 09:25 | 24.29117 | 73.92043 | 37789 ft | 436 kts | 292° |
| 2026-04-30 09:26 | 24.31073 | 73.85749 | 37785 ft | 436 kts | 292° |
| 2026-04-30 09:26 | 24.33024 | 73.79461 | 37786 ft | 436 kts | 291° |
| 2026-04-30 09:27 | 24.34974 | 73.73161 | 37788 ft | 436 kts | 291° |
| 2026-04-30 09:27 | 24.36920 | 73.66864 | 37792 ft | 436 kts | 291° |
| 2026-04-30 09:28 | 24.38861 | 73.60572 | 37793 ft | 435 kts | 291° |
| 2026-04-30 09:28 | 24.40794 | 73.54300 | 37793 ft | 434 kts | 291° |
| 2026-04-30 09:29 | 24.42721 | 73.48035 | 37792 ft | 433 kts | 291° |
| 2026-04-30 09:29 | 24.44649 | 73.41763 | 37793 ft | 434 kts | 291° |
| 2026-04-30 09:30 | 24.46559 | 73.35535 | 37792 ft | 434 kts | 291° |
| 2026-04-30 09:30 | 24.48479 | 73.29263 | 37786 ft | 434 kts | 291° |
| 2026-04-30 09:31 | 24.50399 | 73.22982 | 37778 ft | 434 kts | 291° |
| 2026-04-30 09:31 | 24.52318 | 73.16695 | 37778 ft | 434 kts | 291° |
| 2026-04-30 09:32 | 24.54233 | 73.10407 | 37778 ft | 434 kts | 291° |
| 2026-04-30 09:32 | 24.56146 | 73.04118 | 37774 ft | 434 kts | 291° |
| 2026-04-30 09:33 | 24.58058 | 72.97821 | 37771 ft | 434 kts | 291° |
| 2026-04-30 09:33 | 24.59965 | 72.91528 | 37764 ft | 434 kts | 291° |
| 2026-04-30 09:34 | 24.61868 | 72.85237 | 37763 ft | 434 kts | 291° |
| 2026-04-30 09:34 | 24.63767 | 72.78952 | 37759 ft | 433 kts | 291° |
| 2026-04-30 09:35 | 24.65655 | 72.72691 | 37758 ft | 431 kts | 291° |
| 2026-04-30 09:35 | 24.67480 | 72.66630 | 37753 ft | 430 kts | 291° |
| 2026-04-30 09:36 | 24.69120 | 72.61177 | 37752 ft | 430 kts | 291° |
| 2026-04-30 09:36 | 24.70996 | 72.54926 | 37753 ft | 431 kts | 291° |
| 2026-04-30 09:37 | 24.72871 | 72.48668 | 37738 ft | 431 kts | 291° |
| 2026-04-30 09:37 | 24.74746 | 72.42401 | 37740 ft | 431 kts | 291° |
| 2026-04-30 09:38 | 24.76616 | 72.36139 | 37732 ft | 431 kts | 291° |
| 2026-04-30 09:38 | 24.78485 | 72.29869 | 37730 ft | 431 kts | 291° |
| 2026-04-30 09:39 | 24.80349 | 72.23605 | 37717 ft | 431 kts | 290° |
| 2026-04-30 09:39 | 24.82217 | 72.17319 | 37717 ft | 433 kts | 290° |
| 2026-04-30 09:40 | 24.84085 | 72.11020 | 37710 ft | 433 kts | 290° |
| 2026-04-30 09:40 | 24.85951 | 72.04718 | 37705 ft | 432 kts | 290° |
| 2026-04-30 09:41 | 24.87808 | 71.98435 | 37709 ft | 431 kts | 290° |
| 2026-04-30 09:41 | 24.89661 | 71.92154 | 37705 ft | 431 kts | 290° |
| 2026-04-30 09:42 | 24.91514 | 71.85867 | 37702 ft | 432 kts | 290° |
| 2026-04-30 09:42 | 24.93369 | 71.79560 | 37694 ft | 433 kts | 290° |
| 2026-04-30 09:43 | 24.95221 | 71.73249 | 37694 ft | 433 kts | 290° |
| 2026-04-30 09:43 | 24.97072 | 71.66933 | 37691 ft | 433 kts | 290° |
| 2026-04-30 09:44 | 24.98919 | 71.60619 | 37684 ft | 433 kts | 290° |
| 2026-04-30 09:44 | 25.00762 | 71.54306 | 37679 ft | 433 kts | 290° |
| 2026-04-30 09:45 | 25.02596 | 71.48018 | 37684 ft | 434 kts | 290° |
| 2026-04-30 09:45 | 25.04439 | 71.41684 | 37683 ft | 434 kts | 290° |
| 2026-04-30 09:46 | 25.06280 | 71.35346 | 37675 ft | 434 kts | 290° |
| 2026-04-30 09:46 | 25.08111 | 71.29031 | 37670 ft | 431 kts | 290° |
| 2026-04-30 09:47 | 25.09935 | 71.22730 | 37672 ft | 431 kts | 290° |
| 2026-04-30 09:47 | 25.11755 | 71.16430 | 37671 ft | 431 kts | 290° |
| 2026-04-30 09:48 | 25.13587 | 71.10082 | 37668 ft | 431 kts | 290° |
| 2026-04-30 09:48 | 25.15391 | 71.03816 | 37666 ft | 431 kts | 290° |
| 2026-04-30 09:49 | 25.17206 | 70.97504 | 37668 ft | 431 kts | 289° |
| 2026-04-30 09:49 | 25.19018 | 70.91189 | 37667 ft | 431 kts | 289° |
| 2026-04-30 09:50 | 25.20827 | 70.84871 | 37667 ft | 432 kts | 289° |
| 2026-04-30 09:50 | 25.22639 | 70.78539 | 37667 ft | 432 kts | 289° |
| 2026-04-30 09:51 | 25.24483 | 70.72222 | 37667 ft | 432 kts | 290° |
| 2026-04-30 09:51 | 25.26344 | 70.65906 | 37675 ft | 432 kts | 290° |
| 2026-04-30 09:52 | 25.28192 | 70.59606 | 37667 ft | 431 kts | 289° |
| 2026-04-30 09:52 | 25.30031 | 70.53309 | 37663 ft | 430 kts | 289° |
| 2026-04-30 09:53 | 25.31866 | 70.47009 | 37666 ft | 431 kts | 289° |
| 2026-04-30 09:53 | 25.33699 | 70.40704 | 37667 ft | 431 kts | 289° |
| 2026-04-30 09:54 | 25.35529 | 70.34400 | 37664 ft | 431 kts | 289° |
| 2026-04-30 09:54 | 25.37360 | 70.28081 | 37666 ft | 431 kts | 289° |
| 2026-04-30 09:55 | 25.39185 | 70.21769 | 37664 ft | 431 kts | 289° |
| 2026-04-30 09:55 | 25.41008 | 70.15457 | 37661 ft | 431 kts | 289° |
| 2026-04-30 09:56 | 25.42830 | 70.09135 | 37662 ft | 431 kts | 289° |
| 2026-04-30 09:56 | 25.44650 | 70.02808 | 37661 ft | 431 kts | 289° |
| 2026-04-30 09:57 | 25.46466 | 69.96484 | 37661 ft | 431 kts | 289° |
| 2026-04-30 09:57 | 25.48273 | 69.90178 | 37656 ft | 429 kts | 289° |
| 2026-04-30 09:58 | 25.50073 | 69.83891 | 37653 ft | 429 kts | 288° |
| 2026-04-30 09:58 | 25.51970 | 69.77680 | 37653 ft | 429 kts | 294° |
| 2026-04-30 09:59 | 25.57609 | 69.66039 | 37650 ft | 429 kts | 299° |
| 2026-04-30 10:00 | 25.62033 | 69.57418 | 37653 ft | 429 kts | 299° |
| 2026-04-30 10:01 | 25.66432 | 69.48776 | 37644 ft | 430 kts | 299° |
| 2026-04-30 10:02 | 25.70823 | 69.40111 | 37644 ft | 429 kts | 298° |
| 2026-04-30 10:02 | 25.73739 | 69.34346 | 37639 ft | 428 kts | 298° |
| 2026-04-30 10:03 | 25.76653 | 69.28581 | 37636 ft | 428 kts | 298° |
| 2026-04-30 10:03 | 25.79566 | 69.22812 | 37636 ft | 429 kts | 298° |
| 2026-04-30 10:04 | 25.82477 | 69.17038 | 37632 ft | 429 kts | 298° |
| 2026-04-30 10:04 | 25.85391 | 69.11251 | 37634 ft | 430 kts | 298° |
| 2026-04-30 10:05 | 25.87814 | 69.06434 | 37631 ft | 430 kts | 298° |
| 2026-04-30 10:05 | 25.90727 | 69.00636 | 37632 ft | 430 kts | 298° |
| 2026-04-30 10:06 | 25.93626 | 68.94857 | 37629 ft | 427 kts | 298° |
| 2026-04-30 10:06 | 25.96517 | 68.89089 | 37629 ft | 427 kts | 298° |
| 2026-04-30 10:07 | 25.99402 | 68.83325 | 37625 ft | 427 kts | 297° |
| 2026-04-30 10:07 | 26.02284 | 68.77559 | 37625 ft | 427 kts | 297° |
| 2026-04-30 10:08 | 26.05167 | 68.71782 | 37622 ft | 427 kts | 297° |
| 2026-04-30 10:08 | 26.08043 | 68.66011 | 37622 ft | 427 kts | 297° |
| 2026-04-30 10:09 | 26.10921 | 68.60231 | 37623 ft | 427 kts | 297° |
| 2026-04-30 10:09 | 26.13795 | 68.54451 | 37621 ft | 425 kts | 297° |
| 2026-04-30 10:10 | 26.16650 | 68.48703 | 37619 ft | 424 kts | 297° |
| 2026-04-30 10:10 | 26.19502 | 68.42952 | 37621 ft | 424 kts | 297° |
| 2026-04-30 10:11 | 26.21849 | 68.36960 | 37625 ft | 422 kts | 285° |
| 2026-04-30 10:11 | 26.23216 | 68.30598 | 37621 ft | 423 kts | 282° |
| 2026-04-30 10:12 | 26.24403 | 68.24186 | 37620 ft | 423 kts | 282° |
| 2026-04-30 10:12 | 26.25558 | 68.17807 | 37617 ft | 423 kts | 282° |
| 2026-04-30 10:13 | 26.26734 | 68.11386 | 37618 ft | 423 kts | 282° |
| 2026-04-30 10:13 | 26.27917 | 68.04975 | 37618 ft | 423 kts | 282° |
| 2026-04-30 10:14 | 26.29104 | 67.98545 | 37619 ft | 423 kts | 282° |
| 2026-04-30 10:14 | 26.30875 | 67.88909 | 37616 ft | 423 kts | 282° |
| 2026-04-30 10:15 | 26.32051 | 67.82490 | 37616 ft | 422 kts | 282° |
| 2026-04-30 10:15 | 26.33222 | 67.76080 | 37619 ft | 421 kts | 282° |
| 2026-04-30 10:16 | 26.34387 | 67.69681 | 37619 ft | 421 kts | 281° |
| 2026-04-30 10:17 | 26.36124 | 67.60113 | 37622 ft | 421 kts | 281° |
| 2026-04-30 10:17 | 26.37861 | 67.50510 | 37633 ft | 421 kts | 281° |
| 2026-04-30 10:18 | 26.39015 | 67.44110 | 37626 ft | 420 kts | 281° |
| 2026-04-30 10:19 | 26.40739 | 67.34514 | 37636 ft | 421 kts | 281° |
| 2026-04-30 10:19 | 26.41884 | 67.28118 | 37649 ft | 420 kts | 281° |
| 2026-04-30 10:20 | 26.43027 | 67.21715 | 37632 ft | 421 kts | 281° |
| 2026-04-30 10:20 | 26.44746 | 67.12054 | 37661 ft | 425 kts | 281° |
| 2026-04-30 10:21 | 26.45894 | 67.05586 | 37652 ft | 425 kts | 281° |
| 2026-04-30 10:21 | 26.47038 | 66.99116 | 37677 ft | 425 kts | 281° |
| 2026-04-30 10:22 | 26.48195 | 66.92646 | 37673 ft | 425 kts | 281° |
| 2026-04-30 10:22 | 26.49356 | 66.86180 | 37688 ft | 424 kts | 281° |
| 2026-04-30 10:23 | 26.50505 | 66.79762 | 37687 ft | 420 kts | 281° |
| 2026-04-30 10:23 | 26.51645 | 66.73364 | 37695 ft | 420 kts | 281° |
| 2026-04-30 10:24 | 26.52782 | 66.66960 | 37693 ft | 420 kts | 281° |
| 2026-04-30 10:24 | 26.53909 | 66.60597 | 37686 ft | 420 kts | 281° |
| 2026-04-30 10:25 | 26.55038 | 66.54205 | 37692 ft | 420 kts | 280° |
| 2026-04-30 10:25 | 26.56166 | 66.47799 | 37685 ft | 421 kts | 280° |
| 2026-04-30 10:26 | 26.57293 | 66.41384 | 37685 ft | 421 kts | 280° |
| 2026-04-30 10:26 | 26.58417 | 66.34969 | 37677 ft | 421 kts | 280° |
| 2026-04-30 10:27 | 26.59539 | 66.28545 | 37691 ft | 421 kts | 280° |
| 2026-04-30 10:27 | 26.60659 | 66.22119 | 37686 ft | 421 kts | 280° |
| 2026-04-30 10:28 | 26.61774 | 66.15699 | 37682 ft | 421 kts | 280° |
| 2026-04-30 10:28 | 26.62885 | 66.09283 | 37682 ft | 421 kts | 280° |
| 2026-04-30 10:29 | 26.63994 | 66.02862 | 37683 ft | 421 kts | 280° |
| 2026-04-30 10:29 | 26.65101 | 65.96440 | 37687 ft | 420 kts | 280° |
| 2026-04-30 10:30 | 26.66203 | 65.90027 | 37687 ft | 420 kts | 279° |
| 2026-04-30 10:30 | 26.67304 | 65.83603 | 37681 ft | 421 kts | 279° |
| 2026-04-30 10:31 | 26.68403 | 65.77170 | 37676 ft | 421 kts | 279° |
| 2026-04-30 10:31 | 26.69500 | 65.70732 | 37673 ft | 421 kts | 279° |
| 2026-04-30 10:32 | 26.70593 | 65.64295 | 37687 ft | 421 kts | 279° |
| 2026-04-30 10:32 | 26.71683 | 65.57856 | 37683 ft | 422 kts | 279° |
| 2026-04-30 10:33 | 26.72776 | 65.51388 | 37683 ft | 423 kts | 279° |
| 2026-04-30 10:33 | 26.73867 | 65.44916 | 37683 ft | 423 kts | 279° |
| 2026-04-30 10:34 | 26.74950 | 65.38460 | 37682 ft | 422 kts | 279° |
| 2026-04-30 10:34 | 26.76033 | 65.31992 | 37695 ft | 423 kts | 279° |
| 2026-04-30 10:35 | 26.77115 | 65.25517 | 37698 ft | 423 kts | 279° |
| 2026-04-30 10:35 | 26.78182 | 65.19107 | 37694 ft | 422 kts | 279° |
| 2026-04-30 10:36 | 26.79251 | 65.12662 | 37695 ft | 421 kts | 279° |
| 2026-04-30 10:36 | 26.80318 | 65.06214 | 37701 ft | 421 kts | 279° |
| 2026-04-30 10:37 | 26.81382 | 64.99772 | 37705 ft | 421 kts | 279° |
| 2026-04-30 10:37 | 26.82442 | 64.93326 | 37703 ft | 421 kts | 278° |
| 2026-04-30 10:38 | 26.83503 | 64.86861 | 37709 ft | 422 kts | 278° |
| 2026-04-30 10:38 | 26.84559 | 64.80402 | 37708 ft | 422 kts | 278° |
| 2026-04-30 10:39 | 26.85612 | 64.73947 | 37707 ft | 422 kts | 278° |
| 2026-04-30 10:39 | 26.86661 | 64.67499 | 37719 ft | 420 kts | 278° |
| 2026-04-30 10:40 | 26.87704 | 64.61062 | 37718 ft | 419 kts | 278° |
| 2026-04-30 10:40 | 26.88743 | 64.54632 | 37722 ft | 419 kts | 278° |
| 2026-04-30 10:41 | 26.89779 | 64.48204 | 37717 ft | 420 kts | 278° |
| 2026-04-30 10:41 | 26.90813 | 64.41766 | 37717 ft | 420 kts | 278° |
| 2026-04-30 10:42 | 26.91838 | 64.35372 | 37728 ft | 420 kts | 278° |
| 2026-04-30 10:42 | 26.92864 | 64.28945 | 37721 ft | 418 kts | 278° |
| 2026-04-30 10:43 | 26.93886 | 64.22529 | 37719 ft | 418 kts | 278° |
| 2026-04-30 10:43 | 26.94972 | 64.16123 | 37719 ft | 419 kts | 282° |
| 2026-04-30 10:44 | 26.97155 | 64.10036 | 37714 ft | 424 kts | 294° |
| 2026-04-30 10:44 | 26.99994 | 64.04219 | 37731 ft | 426 kts | 295° |
| 2026-04-30 10:45 | 27.02929 | 63.98463 | 37710 ft | 424 kts | 295° |
| 2026-04-30 10:45 | 27.05846 | 63.92725 | 37711 ft | 423 kts | 295° |
| 2026-04-30 10:46 | 27.08743 | 63.86972 | 37710 ft | 423 kts | 295° |
| 2026-04-30 10:46 | 27.11627 | 63.81217 | 37705 ft | 423 kts | 295° |
| 2026-04-30 10:47 | 27.14509 | 63.75458 | 37704 ft | 423 kts | 295° |
| 2026-04-30 10:47 | 27.17393 | 63.69688 | 37706 ft | 424 kts | 295° |
| 2026-04-30 10:48 | 27.20276 | 63.63916 | 37705 ft | 424 kts | 294° |
| 2026-04-30 10:48 | 27.23149 | 63.58156 | 37707 ft | 422 kts | 294° |
| 2026-04-30 10:49 | 27.26014 | 63.52401 | 37706 ft | 422 kts | 294° |
| 2026-04-30 10:49 | 27.28877 | 63.46642 | 37702 ft | 422 kts | 294° |
| 2026-04-30 10:50 | 27.31741 | 63.40877 | 37696 ft | 423 kts | 294° |
| 2026-04-30 10:50 | 27.34620 | 63.35069 | 37709 ft | 426 kts | 294° |
| 2026-04-30 10:51 | 27.37506 | 63.29243 | 37698 ft | 427 kts | 294° |
| 2026-04-30 10:51 | 27.40391 | 63.23415 | 37706 ft | 425 kts | 294° |
| 2026-04-30 10:52 | 27.43258 | 63.17615 | 37696 ft | 423 kts | 294° |
| 2026-04-30 10:52 | 27.45633 | 63.12802 | 37693 ft | 423 kts | 294° |
| 2026-04-30 10:53 | 27.48464 | 63.07053 | 37700 ft | 424 kts | 294° |
| 2026-04-30 10:53 | 27.51325 | 63.01239 | 37684 ft | 425 kts | 294° |
| 2026-04-30 10:54 | 27.54188 | 62.95414 | 37697 ft | 425 kts | 294° |
| 2026-04-30 10:54 | 27.56999 | 62.89686 | 37692 ft | 425 kts | 294° |
| 2026-04-30 10:55 | 27.59855 | 62.83861 | 37696 ft | 423 kts | 294° |
| 2026-04-30 10:55 | 27.62698 | 62.78048 | 37694 ft | 425 kts | 294° |
| 2026-04-30 10:56 | 27.65523 | 62.72229 | 37700 ft | 426 kts | 294° |
| 2026-04-30 10:56 | 27.68372 | 62.66360 | 37699 ft | 427 kts | 294° |
| 2026-04-30 10:57 | 27.71223 | 62.60485 | 37721 ft | 427 kts | 294° |
| 2026-04-30 10:57 | 27.74073 | 62.54607 | 37714 ft | 427 kts | 293° |
| 2026-04-30 10:58 | 27.76918 | 62.48731 | 37750 ft | 425 kts | 292° |
| 2026-04-30 10:58 | 27.79739 | 62.42901 | 37734 ft | 422 kts | 293° |
| 2026-04-30 10:59 | 27.82545 | 62.37086 | 37758 ft | 422 kts | 292° |
| 2026-04-30 10:59 | 27.85348 | 62.31266 | 37762 ft | 422 kts | 292° |
| 2026-04-30 11:00 | 27.88149 | 62.25441 | 37783 ft | 421 kts | 292° |
| 2026-04-30 11:00 | 27.90946 | 62.19622 | 37769 ft | 421 kts | 292° |
| 2026-04-30 11:01 | 27.93736 | 62.13814 | 37807 ft | 420 kts | 292° |
| 2026-04-30 11:01 | 27.96515 | 62.08002 | 37800 ft | 420 kts | 292° |
| 2026-04-30 11:02 | 27.99297 | 62.02186 | 37816 ft | 421 kts | 292° |
| 2026-04-30 11:02 | 28.02083 | 61.96371 | 37817 ft | 420 kts | 292° |
| 2026-04-30 11:03 | 28.04864 | 61.90554 | 37816 ft | 421 kts | 292° |
| 2026-04-30 11:04 | 28.09050 | 61.81778 | 37822 ft | 423 kts | 292° |
| 2026-04-30 11:04 | 28.11843 | 61.75898 | 37827 ft | 424 kts | 292° |
| 2026-04-30 11:05 | 28.14638 | 61.70013 | 37825 ft | 424 kts | 292° |
| 2026-04-30 11:05 | 28.17498 | 61.64155 | 37827 ft | 428 kts | 297° |
| 2026-04-30 11:06 | 28.21419 | 61.58976 | 37833 ft | 441 kts | 310° |
| 2026-04-30 11:06 | 28.26094 | 61.54432 | 37845 ft | 444 kts | 313° |
| 2026-04-30 11:07 | 28.30857 | 61.50038 | 37835 ft | 445 kts | 313° |
| 2026-04-30 11:07 | 28.35654 | 61.45610 | 37829 ft | 443 kts | 313° |
| 2026-04-30 11:08 | 28.40415 | 61.41173 | 37847 ft | 442 kts | 312° |
| 2026-04-30 11:08 | 28.45158 | 61.36727 | 37853 ft | 442 kts | 312° |
| 2026-04-30 11:09 | 28.49901 | 61.32273 | 37865 ft | 443 kts | 313° |
| 2026-04-30 11:09 | 28.54660 | 61.27799 | 37888 ft | 444 kts | 312° |
| 2026-04-30 11:10 | 28.59420 | 61.23324 | 37876 ft | 443 kts | 312° |
| 2026-04-30 11:10 | 28.64170 | 61.18849 | 37898 ft | 443 kts | 312° |
| 2026-04-30 11:11 | 28.68916 | 61.14376 | 37898 ft | 443 kts | 312° |
| 2026-04-30 11:11 | 28.73656 | 61.09903 | 37920 ft | 442 kts | 312° |
| 2026-04-30 11:12 | 28.78386 | 61.05431 | 37923 ft | 441 kts | 312° |
| 2026-04-30 11:12 | 28.83110 | 61.00960 | 37921 ft | 442 kts | 312° |
| 2026-04-30 11:13 | 28.87813 | 60.96503 | 37936 ft | 443 kts | 312° |
| 2026-04-30 11:13 | 28.92581 | 60.91982 | 37923 ft | 442 kts | 312° |
| 2026-04-30 11:14 | 28.97231 | 60.87464 | 37936 ft | 438 kts | 307° |
| 2026-04-30 11:14 | 29.00969 | 60.82151 | 37922 ft | 425 kts | 297° |
| 2026-04-30 11:15 | 29.04209 | 60.76519 | 37941 ft | 423 kts | 295° |
| 2026-04-30 11:15 | 29.07361 | 60.70830 | 37925 ft | 425 kts | 295° |
| 2026-04-30 11:16 | 29.10526 | 60.65120 | 37927 ft | 425 kts | 296° |
| 2026-04-30 11:16 | 29.13704 | 60.59418 | 37926 ft | 425 kts | 296° |
| 2026-04-30 11:17 | 29.16883 | 60.53719 | 37920 ft | 424 kts | 296° |
| 2026-04-30 11:17 | 29.20054 | 60.48030 | 37928 ft | 424 kts | 295° |
| 2026-04-30 11:18 | 29.23233 | 60.42343 | 37916 ft | 426 kts | 297° |
| 2026-04-30 11:18 | 29.27188 | 60.37152 | 37930 ft | 438 kts | 308° |
| 2026-04-30 11:18 | 29.29387 | 60.34728 | 37926 ft | 440 kts | 309° |
| 2026-04-30 11:19 | 29.33883 | 60.29959 | 37932 ft | 441 kts | 309° |
| 2026-04-30 11:19 | 29.38388 | 60.25226 | 37935 ft | 438 kts | 309° |
| 2026-04-30 11:20 | 29.42867 | 60.20487 | 37934 ft | 438 kts | 309° |
| 2026-04-30 11:20 | 29.47330 | 60.15735 | 37925 ft | 438 kts | 309° |
| 2026-04-30 11:21 | 29.51800 | 60.10964 | 37924 ft | 439 kts | 309° |
| 2026-04-30 11:21 | 29.56273 | 60.06186 | 37934 ft | 439 kts | 309° |
| 2026-04-30 11:22 | 29.60739 | 60.01411 | 37917 ft | 439 kts | 309° |
| 2026-04-30 11:22 | 29.65203 | 59.96630 | 37916 ft | 438 kts | 309° |
| 2026-04-30 11:23 | 29.69563 | 59.91761 | 37899 ft | 433 kts | 304° |
| 2026-04-30 11:24 | 29.75449 | 59.83987 | 37902 ft | 429 kts | 302° |
| 2026-04-30 11:24 | 29.79304 | 59.78763 | 37876 ft | 428 kts | 302° |
| 2026-04-30 11:25 | 29.85068 | 59.70916 | 37862 ft | 428 kts | 302° |
| 2026-04-30 11:26 | 29.92766 | 59.60461 | 37868 ft | 427 kts | 302° |
| 2026-04-30 11:26 | 29.96611 | 59.55233 | 37852 ft | 428 kts | 302° |
| 2026-04-30 11:27 | 30.00461 | 59.49987 | 37853 ft | 428 kts | 302° |
| 2026-04-30 11:27 | 30.04316 | 59.44733 | 37845 ft | 428 kts | 302° |
| 2026-04-30 11:28 | 30.10086 | 59.36850 | 37847 ft | 428 kts | 302° |
| 2026-04-30 11:29 | 30.13926 | 59.31595 | 37833 ft | 428 kts | 302° |
| 2026-04-30 11:29 | 30.19706 | 59.23667 | 37841 ft | 431 kts | 302° |
| 2026-04-30 11:30 | 30.25473 | 59.15748 | 37845 ft | 431 kts | 302° |
| 2026-04-30 11:31 | 30.29332 | 59.10442 | 37843 ft | 431 kts | 301° |
| 2026-04-30 11:31 | 30.33185 | 59.05135 | 37840 ft | 430 kts | 301° |
| 2026-04-30 11:32 | 30.37036 | 58.99824 | 37837 ft | 431 kts | 301° |
| 2026-04-30 11:32 | 30.40888 | 58.94502 | 37837 ft | 431 kts | 301° |
| 2026-04-30 11:33 | 30.46666 | 58.86508 | 37846 ft | 431 kts | 301° |
| 2026-04-30 11:33 | 30.50501 | 58.81197 | 37840 ft | 428 kts | 301° |
| 2026-04-30 11:34 | 30.54322 | 58.75896 | 37840 ft | 428 kts | 301° |
| 2026-04-30 11:34 | 30.58132 | 58.70589 | 37840 ft | 428 kts | 301° |
| 2026-04-30 11:35 | 30.61941 | 58.65274 | 37840 ft | 428 kts | 301° |
| 2026-04-30 11:35 | 30.65749 | 58.59960 | 37842 ft | 427 kts | 301° |
| 2026-04-30 11:36 | 30.69543 | 58.54657 | 37842 ft | 427 kts | 301° |
| 2026-04-30 11:36 | 30.73337 | 58.49347 | 37841 ft | 427 kts | 301° |
| 2026-04-30 11:37 | 30.77103 | 58.44067 | 37846 ft | 428 kts | 301° |
| 2026-04-30 11:37 | 30.80907 | 58.38728 | 37867 ft | 429 kts | 300° |
| 2026-04-30 11:38 | 30.84710 | 58.33384 | 37844 ft | 429 kts | 300° |
| 2026-04-30 11:38 | 30.88514 | 58.28033 | 37847 ft | 429 kts | 300° |
| 2026-04-30 11:39 | 30.92315 | 58.22678 | 37851 ft | 429 kts | 300° |
| 2026-04-30 11:39 | 30.96115 | 58.17316 | 37858 ft | 429 kts | 300° |
| 2026-04-30 11:40 | 30.99908 | 58.11958 | 37863 ft | 428 kts | 300° |
| 2026-04-30 11:40 | 31.03691 | 58.06608 | 37854 ft | 427 kts | 300° |
| 2026-04-30 11:41 | 31.07467 | 58.01256 | 37867 ft | 427 kts | 300° |
| 2026-04-30 11:41 | 31.10603 | 57.96807 | 37869 ft | 427 kts | 300° |
| 2026-04-30 11:42 | 31.14374 | 57.91450 | 37889 ft | 427 kts | 299° |
| 2026-04-30 11:42 | 31.18133 | 57.86106 | 37881 ft | 425 kts | 299° |
| 2026-04-30 11:43 | 31.21874 | 57.80779 | 37876 ft | 424 kts | 299° |
| 2026-04-30 11:43 | 31.25605 | 57.75455 | 37879 ft | 424 kts | 299° |
| 2026-04-30 11:44 | 31.29337 | 57.70122 | 37872 ft | 424 kts | 299° |
| 2026-04-30 11:44 | 31.33070 | 57.64782 | 37871 ft | 424 kts | 298° |
| 2026-04-30 11:45 | 31.36772 | 57.59481 | 37867 ft | 423 kts | 298° |
| 2026-04-30 11:45 | 31.40495 | 57.54140 | 37862 ft | 423 kts | 298° |
| 2026-04-30 11:46 | 31.44217 | 57.48795 | 37861 ft | 424 kts | 298° |
| 2026-04-30 11:46 | 31.47937 | 57.43445 | 37859 ft | 424 kts | 298° |
| 2026-04-30 11:47 | 31.51656 | 57.38090 | 37853 ft | 423 kts | 298° |
| 2026-04-30 11:47 | 31.55371 | 57.32731 | 37855 ft | 424 kts | 298° |
| 2026-04-30 11:48 | 31.59084 | 57.27367 | 37847 ft | 424 kts | 298° |
| 2026-04-30 11:48 | 31.62797 | 57.21998 | 37848 ft | 424 kts | 298° |
| 2026-04-30 11:49 | 31.66510 | 57.16620 | 37849 ft | 424 kts | 297° |
| 2026-04-30 11:49 | 31.70193 | 57.11280 | 37850 ft | 424 kts | 297° |
| 2026-04-30 11:50 | 31.73899 | 57.05898 | 37850 ft | 424 kts | 297° |
| 2026-04-30 11:50 | 31.77592 | 57.00507 | 37856 ft | 421 kts | 296° |
| 2026-04-30 11:51 | 31.80909 | 56.94897 | 37864 ft | 416 kts | 293° |
| 2026-04-30 11:51 | 31.84115 | 56.89235 | 37859 ft | 416 kts | 292° |
| 2026-04-30 11:52 | 31.87302 | 56.83551 | 37872 ft | 416 kts | 292° |
| 2026-04-30 11:52 | 31.90493 | 56.77859 | 37854 ft | 418 kts | 292° |
| 2026-04-30 11:53 | 31.93699 | 56.72141 | 37869 ft | 418 kts | 292° |
| 2026-04-30 11:53 | 31.96904 | 56.66427 | 37877 ft | 418 kts | 292° |
| 2026-04-30 11:54 | 32.00111 | 56.60707 | 37871 ft | 419 kts | 292° |
| 2026-04-30 11:54 | 32.03313 | 56.54981 | 37864 ft | 419 kts | 292° |
| 2026-04-30 11:55 | 32.06518 | 56.49233 | 37875 ft | 420 kts | 292° |
| 2026-04-30 11:55 | 32.09720 | 56.43484 | 37870 ft | 420 kts | 292° |
| 2026-04-30 11:56 | 32.12927 | 56.37723 | 37875 ft | 420 kts | 292° |
| 2026-04-30 11:56 | 32.16104 | 56.32010 | 37861 ft | 419 kts | 292° |
| 2026-04-30 11:57 | 32.19299 | 56.26251 | 37876 ft | 420 kts | 292° |
| 2026-04-30 11:57 | 32.22493 | 56.20485 | 37877 ft | 420 kts | 292° |
| 2026-04-30 11:58 | 32.25686 | 56.14716 | 37862 ft | 419 kts | 292° |
| 2026-04-30 11:58 | 32.28872 | 56.08949 | 37867 ft | 419 kts | 292° |
| 2026-04-30 11:59 | 32.32052 | 56.03183 | 37853 ft | 418 kts | 292° |
| 2026-04-30 11:59 | 32.35230 | 55.97411 | 37867 ft | 419 kts | 291° |
| 2026-04-30 12:00 | 32.38406 | 55.91635 | 37859 ft | 419 kts | 291° |
| 2026-04-30 12:00 | 32.41578 | 55.85856 | 37877 ft | 419 kts | 292° |
| 2026-04-30 12:01 | 32.44749 | 55.80071 | 37855 ft | 419 kts | 292° |
| 2026-04-30 12:01 | 32.47921 | 55.74273 | 37868 ft | 420 kts | 291° |
| 2026-04-30 12:02 | 32.51098 | 55.68459 | 37859 ft | 421 kts | 291° |
| 2026-04-30 12:02 | 32.54276 | 55.62637 | 37869 ft | 420 kts | 291° |
| 2026-04-30 12:03 | 32.59007 | 55.53955 | 37874 ft | 420 kts | 292° |
| 2026-04-30 12:04 | 32.62194 | 55.48090 | 37873 ft | 421 kts | 292° |
| 2026-04-30 12:04 | 32.65339 | 55.42290 | 37876 ft | 421 kts | 292° |
| 2026-04-30 12:05 | 32.68507 | 55.36454 | 37872 ft | 421 kts | 292° |
| 2026-04-30 12:05 | 32.71669 | 55.30601 | 37873 ft | 421 kts | 292° |
| 2026-04-30 12:06 | 32.74831 | 55.24739 | 37870 ft | 422 kts | 292° |
| 2026-04-30 12:06 | 32.78011 | 55.18841 | 37868 ft | 421 kts | 292° |
| 2026-04-30 12:07 | 32.81165 | 55.12982 | 37863 ft | 421 kts | 291° |
| 2026-04-30 12:07 | 32.84293 | 55.07160 | 37866 ft | 421 kts | 291° |
| 2026-04-30 12:08 | 32.87443 | 55.01290 | 37856 ft | 421 kts | 291° |
| 2026-04-30 12:08 | 32.90611 | 54.95437 | 37851 ft | 422 kts | 293° |
| 2026-04-30 12:09 | 32.93967 | 54.89676 | 37854 ft | 424 kts | 294° |
| 2026-04-30 12:09 | 32.97364 | 54.83937 | 37883 ft | 424 kts | 294° |
| 2026-04-30 12:10 | 33.00734 | 54.78181 | 37848 ft | 424 kts | 294° |
| 2026-04-30 12:10 | 33.04086 | 54.72406 | 37843 ft | 424 kts | 294° |
| 2026-04-30 12:11 | 33.07430 | 54.66625 | 37845 ft | 423 kts | 294° |
| 2026-04-30 12:11 | 33.10768 | 54.60843 | 37843 ft | 423 kts | 294° |
| 2026-04-30 12:12 | 33.14106 | 54.55058 | 37857 ft | 423 kts | 294° |
| 2026-04-30 12:12 | 33.17436 | 54.49277 | 37818 ft | 423 kts | 294° |
| 2026-04-30 12:13 | 33.20763 | 54.43490 | 37846 ft | 423 kts | 294° |
| 2026-04-30 12:13 | 33.24091 | 54.37694 | 37844 ft | 423 kts | 294° |
| 2026-04-30 12:14 | 33.27412 | 54.31901 | 37843 ft | 423 kts | 294° |
| 2026-04-30 12:14 | 33.30734 | 54.26098 | 37848 ft | 423 kts | 294° |
| 2026-04-30 12:15 | 33.34055 | 54.20285 | 37845 ft | 424 kts | 294° |
| 2026-04-30 12:15 | 33.37385 | 54.14445 | 37848 ft | 425 kts | 294° |
| 2026-04-30 12:16 | 33.40698 | 54.08632 | 37855 ft | 425 kts | 294° |
| 2026-04-30 12:16 | 33.44051 | 54.02740 | 37835 ft | 425 kts | 294° |
| 2026-04-30 12:17 | 33.49018 | 53.93992 | 37842 ft | 425 kts | 294° |
| 2026-04-30 12:17 | 33.52454 | 53.88202 | 37864 ft | 435 kts | 301° |
| 2026-04-30 12:18 | 33.56861 | 53.83093 | 37836 ft | 442 kts | 306° |
| 2026-04-30 12:18 | 33.61399 | 53.78127 | 37838 ft | 442 kts | 306° |
| 2026-04-30 12:19 | 33.65955 | 53.73146 | 37840 ft | 444 kts | 306° |
| 2026-04-30 12:19 | 33.70520 | 53.68153 | 37816 ft | 444 kts | 307° |
| 2026-04-30 12:20 | 33.75084 | 53.63155 | 37818 ft | 444 kts | 307° |
| 2026-04-30 12:20 | 33.79645 | 53.58151 | 37813 ft | 444 kts | 307° |
| 2026-04-30 12:21 | 33.84204 | 53.53142 | 37823 ft | 444 kts | 307° |
| 2026-04-30 12:21 | 33.88765 | 53.48123 | 37801 ft | 444 kts | 307° |
| 2026-04-30 12:22 | 33.93323 | 53.43100 | 37801 ft | 444 kts | 307° |
| 2026-04-30 12:22 | 33.97880 | 53.38071 | 37801 ft | 444 kts | 306° |
| 2026-04-30 12:23 | 34.02436 | 53.33035 | 37801 ft | 444 kts | 307° |
| 2026-04-30 12:23 | 34.06959 | 53.28028 | 37799 ft | 444 kts | 307° |
| 2026-04-30 12:24 | 34.11508 | 53.22984 | 37803 ft | 444 kts | 307° |
| 2026-04-30 12:24 | 34.16060 | 53.17929 | 37805 ft | 445 kts | 307° |
| 2026-04-30 12:25 | 34.20613 | 53.12865 | 37804 ft | 445 kts | 307° |
| 2026-04-30 12:25 | 34.25166 | 53.07793 | 37801 ft | 445 kts | 307° |
| 2026-04-30 12:26 | 34.29714 | 53.02720 | 37492 ft | 445 kts | 307° |
| 2026-04-30 12:26 | 34.31991 | 53.00176 | 37241 ft | 446 kts | 307° |
| 2026-04-30 12:26 | 34.34269 | 52.97629 | 36982 ft | 446 kts | 308° |
| 2026-04-30 12:27 | 34.36553 | 52.95075 | 36752 ft | 447 kts | 308° |
| 2026-04-30 12:27 | 34.38829 | 52.92528 | 36307 ft | 445 kts | 308° |
| 2026-04-30 12:27 | 34.41103 | 52.89981 | 35699 ft | 446 kts | 308° |
| 2026-04-30 12:27 | 34.43384 | 52.87420 | 35001 ft | 449 kts | 308° |
| 2026-04-30 12:28 | 34.45683 | 52.84837 | 34288 ft | 453 kts | 309° |
| 2026-04-30 12:28 | 34.48003 | 52.82229 | 33471 ft | 457 kts | 309° |
| 2026-04-30 12:28 | 34.50343 | 52.79599 | 32631 ft | 460 kts | 310° |
| 2026-04-30 12:28 | 34.52695 | 52.76954 | 31821 ft | 462 kts | 310° |
| 2026-04-30 12:29 | 34.55054 | 52.74299 | 30973 ft | 465 kts | 311° |
| 2026-04-30 12:29 | 34.57432 | 52.71621 | 30279 ft | 465 kts | 311° |
| 2026-04-30 12:29 | 34.59798 | 52.68957 | 29666 ft | 462 kts | 311° |
| 2026-04-30 12:29 | 34.62142 | 52.66316 | 29043 ft | 458 kts | 311° |
| 2026-04-30 12:30 | 34.64465 | 52.63696 | 28426 ft | 453 kts | 311° |
| 2026-04-30 12:30 | 34.65987 | 52.61976 | 28042 ft | 450 kts | 311° |
| 2026-04-30 12:30 | 34.68269 | 52.59397 | 27462 ft | 446 kts | 312° |
| 2026-04-30 12:30 | 34.70528 | 52.56840 | 26880 ft | 442 kts | 312° |
| 2026-04-30 12:31 | 34.72770 | 52.54300 | 26292 ft | 439 kts | 312° |
| 2026-04-30 12:31 | 34.74995 | 52.51778 | 25708 ft | 436 kts | 312° |
| 2026-04-30 12:31 | 34.77201 | 52.49275 | 25120 ft | 433 kts | 313° |
| 2026-04-30 12:31 | 34.79395 | 52.46783 | 24534 ft | 430 kts | 313° |
| 2026-04-30 12:32 | 34.81573 | 52.44308 | 23950 ft | 427 kts | 313° |
| 2026-04-30 12:32 | 34.83741 | 52.41843 | 23346 ft | 425 kts | 313° |
| 2026-04-30 12:32 | 34.85898 | 52.39388 | 22694 ft | 423 kts | 313° |
| 2026-04-30 12:32 | 34.88034 | 52.36957 | 22115 ft | 418 kts | 314° |
| 2026-04-30 12:33 | 34.90078 | 52.34471 | 21538 ft | 412 kts | 307° |
| 2026-04-30 12:33 | 34.91631 | 52.31596 | 20996 ft | 403 kts | 295° |
| 2026-04-30 12:33 | 34.92898 | 52.28574 | 20458 ft | 398 kts | 294° |
| 2026-04-30 12:33 | 34.94116 | 52.25560 | 19950 ft | 395 kts | 293° |
| 2026-04-30 12:34 | 34.95323 | 52.22571 | 19422 ft | 391 kts | 294° |
| 2026-04-30 12:34 | 34.96524 | 52.19607 | 18898 ft | 388 kts | 294° |
| 2026-04-30 12:34 | 34.97717 | 52.16667 | 18385 ft | 386 kts | 294° |
| 2026-04-30 12:34 | 34.98904 | 52.13743 | 17832 ft | 383 kts | 294° |
| 2026-04-30 12:35 | 35.00081 | 52.10845 | 17295 ft | 380 kts | 294° |
| 2026-04-30 12:35 | 35.01248 | 52.07972 | 16789 ft | 376 kts | 294° |
| 2026-04-30 12:35 | 35.02403 | 52.05126 | 16266 ft | 372 kts | 294° |
| 2026-04-30 12:35 | 35.03545 | 52.02310 | 15758 ft | 369 kts | 294° |
| 2026-04-30 12:36 | 35.04677 | 51.99515 | 15241 ft | 366 kts | 294° |
| 2026-04-30 12:36 | 35.05801 | 51.96740 | 14742 ft | 363 kts | 294° |
| 2026-04-30 12:36 | 35.06916 | 51.93983 | 14224 ft | 361 kts | 294° |
| 2026-04-30 12:36 | 35.08023 | 51.91244 | 13727 ft | 359 kts | 294° |
| 2026-04-30 12:37 | 35.09108 | 51.88557 | 13175 ft | 357 kts | 294° |
| 2026-04-30 12:37 | 35.10199 | 51.85854 | 12675 ft | 353 kts | 294° |
| 2026-04-30 12:37 | 35.11279 | 51.83174 | 12151 ft | 350 kts | 294° |
| 2026-04-30 12:37 | 35.12349 | 51.80519 | 11668 ft | 347 kts | 294° |
| 2026-04-30 12:38 | 35.13422 | 51.77853 | 11153 ft | 344 kts | 294° |
| 2026-04-30 12:38 | 35.14459 | 51.75277 | 10676 ft | 341 kts | 294° |
| 2026-04-30 12:38 | 35.15484 | 51.72728 | 10528 ft | 328 kts | 294° |
| 2026-04-30 12:38 | 35.16469 | 51.70279 | 10406 ft | 314 kts | 294° |
| 2026-04-30 12:39 | 35.17415 | 51.67925 | 10282 ft | 303 kts | 293° |
| 2026-04-30 12:39 | 35.18417 | 51.65711 | 10165 ft | 295 kts | 303° |
| 2026-04-30 12:39 | 35.19850 | 51.63950 | 10030 ft | 290 kts | 316° |
| 2026-04-30 12:39 | 35.21419 | 51.62432 | 9831 ft | 285 kts | 316° |
| 2026-04-30 12:40 | 35.22916 | 51.60898 | 9665 ft | 277 kts | 315° |
| 2026-04-30 12:40 | 35.24347 | 51.59369 | 9480 ft | 270 kts | 312° |
| 2026-04-30 12:40 | 35.25590 | 51.57675 | 9170 ft | 267 kts | 306° |
| 2026-04-30 12:40 | 35.26735 | 51.55898 | 8865 ft | 265 kts | 304° |
| 2026-04-30 12:41 | 35.27856 | 51.54122 | 8640 ft | 261 kts | 304° |
| 2026-04-30 12:41 | 35.28958 | 51.52376 | 8437 ft | 257 kts | 305° |
| 2026-04-30 12:41 | 35.30046 | 51.50647 | 8186 ft | 255 kts | 305° |
| 2026-04-30 12:41 | 35.31121 | 51.48929 | 7908 ft | 253 kts | 305° |
| 2026-04-30 12:42 | 35.32188 | 51.47218 | 7629 ft | 252 kts | 305° |
| 2026-04-30 12:42 | 35.33154 | 51.45449 | 7355 ft | 249 kts | 296° |
| 2026-04-30 12:42 | 35.33832 | 51.43513 | 7078 ft | 247 kts | 289° |
| 2026-04-30 12:42 | 35.34375 | 51.41541 | 6861 ft | 243 kts | 288° |
| 2026-04-30 12:43 | 35.34909 | 51.39582 | 6513 ft | 243 kts | 289° |
| 2026-04-30 12:43 | 35.35453 | 51.37606 | 6140 ft | 246 kts | 289° |
| 2026-04-30 12:43 | 35.35997 | 51.35648 | 5977 ft | 239 kts | 290° |
| 2026-04-30 12:43 | 35.36524 | 51.33765 | 5970 ft | 227 kts | 290° |
| 2026-04-30 12:44 | 35.37028 | 51.31975 | 5845 ft | 219 kts | 291° |
| 2026-04-30 12:44 | 35.37524 | 51.30217 | 5557 ft | 218 kts | 290° |
| 2026-04-30 12:44 | 35.38003 | 51.28489 | 5279 ft | 215 kts | 290° |
| 2026-04-30 12:44 | 35.38473 | 51.26792 | 5001 ft | 206 kts | 291° |
| 2026-04-30 12:45 | 35.38926 | 51.25163 | 4768 ft | 195 kts | 291° |
| 2026-04-30 12:45 | 35.39348 | 51.23654 | 4502 ft | 180 kts | 290° |
| 2026-04-30 12:45 | 35.39737 | 51.22253 | 4268 ft | 168 kts | 291° |
| 2026-04-30 12:45 | 35.40095 | 51.20952 | 4032 ft | 155 kts | 289° |
| 2026-04-30 12:46 | 35.40426 | 51.19761 | 3834 ft | 141 kts | 290° |
| 2026-04-30 12:46 | 35.40730 | 51.18645 | 3637 ft | 137 kts | 289° |
| 2026-04-30 12:46 | 35.41046 | 51.17536 | 3458 ft | 140 kts | 290° |
| 2026-04-30 12:46 | 35.41366 | 51.16424 | 3286 ft | 135 kts | 288° |
| 2026-04-30 12:47 | 35.41623 | 51.15482 | 3278 ft | 92 kts | 288° |
| 2026-04-30 12:47 | 35.41762 | 51.14991 | 3291 ft | 34 kts | 289° |
| 2026-04-30 12:47 | 35.41835 | 51.14729 | 3292 ft | 31 kts | 289° |
| 2026-04-30 12:47 | 35.41895 | 51.14501 | 3290 ft | 24 kts | 283° |
| 2026-04-30 12:48 | 35.41834 | 51.14394 | 3287 ft | 16 kts | 202° |
| 2026-04-30 12:48 | 35.41724 | 51.14344 | 3287 ft | 17 kts | 198° |
| 2026-04-30 12:48 | 35.41619 | 51.14301 | 3290 ft | 15 kts | 198° |
| 2026-04-30 12:48 | 35.41521 | 51.14261 | 3291 ft | 15 kts | 195° |
| 2026-04-30 12:49 | 35.41456 | 51.14294 | 3291 ft | 6 kts | 112° |
| 2026-04-30 12:49 | 35.41439 | 51.14354 | 3290 ft | 9 kts | 107° |
| 2026-04-30 12:49 | 35.41419 | 51.14434 | 3289 ft | 11 kts | 106° |
| 2026-04-30 12:49 | 35.41396 | 51.14525 | 3288 ft | 12 kts | 109° |
| 2026-04-30 12:50 | 35.41366 | 51.14630 | 3283 ft | 15 kts | 109° |
| 2026-04-30 12:50 | 35.41327 | 51.14766 | 3277 ft | 19 kts | 109° |
| 2026-04-30 12:50 | 35.41283 | 51.14926 | 3275 ft | 20 kts | 108° |
| 2026-04-30 12:50 | 35.41238 | 51.15094 | 3276 ft | 22 kts | 108° |
| 2026-04-30 12:51 | 35.41184 | 51.15193 | 3275 ft | 7 kts | 171° |
| 2026-04-30 12:51 | 35.41151 | 51.15185 | 3277 ft | 4 kts | 198° |
| 2026-04-30 12:51 | 35.41127 | 51.15174 | 3278 ft | 0 kts | 199° |